<?xml version="1.0" encoding="UTF-8"?>
<gpx xmlns="http://www.topografix.com/GPX/1/1" xmlns:gpsies="https://www.gpsies.com/GPX/1/0" creator="GPSies https://www.gpsies.com - burma-m.zion" version="1.1" xmlns:xsi="http://www.w3.org/2001/XMLSchema-instance" xsi:schemaLocation="http://www.topografix.com/GPX/1/1 http://www.topografix.com/GPX/1/1/gpx.xsd https://www.gpsies.com/GPX/1/0 https://www.gpsies.com/gpsies.xsd">
  <metadata>
    <name>burma-m.zion</name>
    <author>
      <name>igor968</name>
      <link href="https://www.gpsies.com/mapUser.do?username=igor968">
        <text>igor968 on GPSies.com</text>
        <type>GPSiesUserOnWeb</type>
      </link>
    </author>
    <link href="https://www.gpsies.com/map.do?fileId=gqbwvbluisbnipyt">
      <text>burma-m.zion on GPSies.com</text>
      <type>trackOnWeb</type>
    </link>
    <time>2018-08-15T19:12:29Z</time>
    <extensions>
      <gpsies:property>round trip</gpsies:property>
      <gpsies:trackLengthMeter>27699.604900024064</gpsies:trackLengthMeter>
      <gpsies:totalAscentMeter>551.0</gpsies:totalAscentMeter>
      <gpsies:totalDescentMeter>551.0</gpsies:totalDescentMeter>
      <gpsies:minHeightMeter>226.0</gpsies:minHeightMeter>
      <gpsies:maxHeightMeter>399.0</gpsies:maxHeightMeter>
    </extensions>
  </metadata>
  <trk>
    <name>burma-m.zion on GPSies.com</name>
    <link href="https://www.gpsies.com/map.do?fileId=gqbwvbluisbnipyt">
      <type>trackOnWeb</type>
    </link>
    <link href="https://www.gpsies.com/charts/gq/map/gqbwvbluisbnipyt_map.png">
      <type>elevationChartUrlMap</type>
    </link>
    <link href="https://www.gpsies.com/charts/gq/mapThumb/gqbwvbluisbnipyt_mapThumb.png">
      <type>elevationChartUrlMapThumb</type>
    </link>
    <link href="https://www.gpsies.com/charts/gq/tab/gqbwvbluisbnipyt_tab.png">
      <type>elevationChartUrlTab</type>
    </link>
    <trkseg>
      <trkpt lat="31.81158000" lon="35.01265000">
        <ele>289.00000</ele>
        <time>2010-01-01T00:00:00Z</time>
      </trkpt>
      <trkpt lat="31.81165000" lon="35.01242000">
        <ele>288.00000</ele>
        <time>2010-01-01T00:00:08Z</time>
      </trkpt>
      <trkpt lat="31.81174000" lon="35.01213000">
        <ele>289.00000</ele>
        <time>2010-01-01T00:00:18Z</time>
      </trkpt>
      <trkpt lat="31.81208000" lon="35.01070000">
        <ele>283.00000</ele>
        <time>2010-01-01T00:01:09Z</time>
      </trkpt>
      <trkpt lat="31.81214000" lon="35.01056000">
        <ele>281.00000</ele>
        <time>2010-01-01T00:01:14Z</time>
      </trkpt>
      <trkpt lat="31.81214000" lon="35.01048000">
        <ele>281.00000</ele>
        <time>2010-01-01T00:01:17Z</time>
      </trkpt>
      <trkpt lat="31.81217000" lon="35.01023000">
        <ele>280.00000</ele>
        <time>2010-01-01T00:01:25Z</time>
      </trkpt>
      <trkpt lat="31.81222000" lon="35.00985000">
        <ele>280.00000</ele>
        <time>2010-01-01T00:01:39Z</time>
      </trkpt>
      <trkpt lat="31.81226000" lon="35.00892000">
        <ele>277.00000</ele>
        <time>2010-01-01T00:02:10Z</time>
      </trkpt>
      <trkpt lat="31.81229000" lon="35.00858000">
        <ele>277.00000</ele>
        <time>2010-01-01T00:02:22Z</time>
      </trkpt>
      <trkpt lat="31.81230000" lon="35.00803000">
        <ele>275.00000</ele>
        <time>2010-01-01T00:02:41Z</time>
      </trkpt>
      <trkpt lat="31.81234000" lon="35.00723000">
        <ele>273.00000</ele>
        <time>2010-01-01T00:03:08Z</time>
      </trkpt>
      <trkpt lat="31.81235000" lon="35.00705000">
        <ele>273.00000</ele>
        <time>2010-01-01T00:03:14Z</time>
      </trkpt>
      <trkpt lat="31.81236570" lon="35.00705480">
        <ele>273.00000</ele>
        <time>2010-01-01T00:03:15Z</time>
      </trkpt>
      <trkpt lat="31.81242040" lon="35.00620720">
        <ele>275.00000</ele>
        <time>2010-01-01T00:03:44Z</time>
      </trkpt>
      <trkpt lat="31.81235660" lon="35.00530600">
        <ele>273.00000</ele>
        <time>2010-01-01T00:04:14Z</time>
      </trkpt>
      <trkpt lat="31.81192000" lon="35.00541000">
        <ele>269.00000</ele>
        <time>2010-01-01T00:04:32Z</time>
      </trkpt>
      <trkpt lat="31.81179000" lon="35.00540000">
        <ele>269.00000</ele>
        <time>2010-01-01T00:04:37Z</time>
      </trkpt>
      <trkpt lat="31.81169000" lon="35.00529000">
        <ele>269.00000</ele>
        <time>2010-01-01T00:04:43Z</time>
      </trkpt>
      <trkpt lat="31.81161000" lon="35.00509000">
        <ele>268.00000</ele>
        <time>2010-01-01T00:04:50Z</time>
      </trkpt>
      <trkpt lat="31.81154000" lon="35.00446000">
        <ele>265.00000</ele>
        <time>2010-01-01T00:05:12Z</time>
      </trkpt>
      <trkpt lat="31.81152000" lon="35.00438000">
        <ele>265.00000</ele>
        <time>2010-01-01T00:05:15Z</time>
      </trkpt>
      <trkpt lat="31.81145000" lon="35.00423000">
        <ele>264.00000</ele>
        <time>2010-01-01T00:05:21Z</time>
      </trkpt>
      <trkpt lat="31.81138000" lon="35.00414000">
        <ele>263.00000</ele>
        <time>2010-01-01T00:05:25Z</time>
      </trkpt>
      <trkpt lat="31.81124000" lon="35.00401000">
        <ele>263.00000</ele>
        <time>2010-01-01T00:05:32Z</time>
      </trkpt>
      <trkpt lat="31.81103000" lon="35.00384000">
        <ele>263.00000</ele>
        <time>2010-01-01T00:05:42Z</time>
      </trkpt>
      <trkpt lat="31.81094000" lon="35.00379000">
        <ele>263.00000</ele>
        <time>2010-01-01T00:05:46Z</time>
      </trkpt>
      <trkpt lat="31.81076000" lon="35.00375000">
        <ele>263.00000</ele>
        <time>2010-01-01T00:05:53Z</time>
      </trkpt>
      <trkpt lat="31.81069000" lon="35.00375000">
        <ele>263.00000</ele>
        <time>2010-01-01T00:05:56Z</time>
      </trkpt>
      <trkpt lat="31.81038000" lon="35.00384000">
        <ele>264.00000</ele>
        <time>2010-01-01T00:06:09Z</time>
      </trkpt>
      <trkpt lat="31.81018000" lon="35.00393000">
        <ele>265.00000</ele>
        <time>2010-01-01T00:06:18Z</time>
      </trkpt>
      <trkpt lat="31.81006000" lon="35.00402000">
        <ele>265.00000</ele>
        <time>2010-01-01T00:06:23Z</time>
      </trkpt>
      <trkpt lat="31.80964000" lon="35.00455000">
        <ele>270.00000</ele>
        <time>2010-01-01T00:06:48Z</time>
      </trkpt>
      <trkpt lat="31.80953000" lon="35.00472000">
        <ele>272.00000</ele>
        <time>2010-01-01T00:06:55Z</time>
      </trkpt>
      <trkpt lat="31.80951000" lon="35.00477000">
        <ele>273.00000</ele>
        <time>2010-01-01T00:06:57Z</time>
      </trkpt>
      <trkpt lat="31.80938000" lon="35.00505000">
        <ele>274.00000</ele>
        <time>2010-01-01T00:07:08Z</time>
      </trkpt>
      <trkpt lat="31.80933000" lon="35.00511000">
        <ele>275.00000</ele>
        <time>2010-01-01T00:07:11Z</time>
      </trkpt>
      <trkpt lat="31.80923000" lon="35.00516000">
        <ele>275.00000</ele>
        <time>2010-01-01T00:07:15Z</time>
      </trkpt>
      <trkpt lat="31.80905000" lon="35.00515000">
        <ele>274.00000</ele>
        <time>2010-01-01T00:07:22Z</time>
      </trkpt>
      <trkpt lat="31.80882000" lon="35.00504000">
        <ele>273.00000</ele>
        <time>2010-01-01T00:07:32Z</time>
      </trkpt>
      <trkpt lat="31.80865000" lon="35.00499000">
        <ele>271.00000</ele>
        <time>2010-01-01T00:07:39Z</time>
      </trkpt>
      <trkpt lat="31.80825000" lon="35.00498000">
        <ele>271.00000</ele>
        <time>2010-01-01T00:07:55Z</time>
      </trkpt>
      <trkpt lat="31.80817000" lon="35.00494000">
        <ele>270.00000</ele>
        <time>2010-01-01T00:07:59Z</time>
      </trkpt>
      <trkpt lat="31.80799000" lon="35.00485000">
        <ele>270.00000</ele>
        <time>2010-01-01T00:08:07Z</time>
      </trkpt>
      <trkpt lat="31.80784000" lon="35.00475000">
        <ele>270.00000</ele>
        <time>2010-01-01T00:08:14Z</time>
      </trkpt>
      <trkpt lat="31.80767000" lon="35.00469000">
        <ele>269.00000</ele>
        <time>2010-01-01T00:08:21Z</time>
      </trkpt>
      <trkpt lat="31.80745000" lon="35.00469000">
        <ele>268.00000</ele>
        <time>2010-01-01T00:08:29Z</time>
      </trkpt>
      <trkpt lat="31.80690000" lon="35.00498000">
        <ele>272.00000</ele>
        <time>2010-01-01T00:08:54Z</time>
      </trkpt>
      <trkpt lat="31.80684000" lon="35.00494000">
        <ele>272.00000</ele>
        <time>2010-01-01T00:08:56Z</time>
      </trkpt>
      <trkpt lat="31.80676000" lon="35.00480000">
        <ele>272.00000</ele>
        <time>2010-01-01T00:09:02Z</time>
      </trkpt>
      <trkpt lat="31.80674000" lon="35.00477000">
        <ele>272.00000</ele>
        <time>2010-01-01T00:09:03Z</time>
      </trkpt>
      <trkpt lat="31.80675000" lon="35.00477000">
        <ele>272.00000</ele>
        <time>2010-01-01T00:09:04Z</time>
      </trkpt>
      <trkpt lat="31.80669000" lon="35.00465000">
        <ele>273.00000</ele>
        <time>2010-01-01T00:09:08Z</time>
      </trkpt>
      <trkpt lat="31.80666000" lon="35.00450000">
        <ele>276.00000</ele>
        <time>2010-01-01T00:09:14Z</time>
      </trkpt>
      <trkpt lat="31.80639000" lon="35.00443000">
        <ele>281.00000</ele>
        <time>2010-01-01T00:09:25Z</time>
      </trkpt>
      <trkpt lat="31.80585000" lon="35.00424000">
        <ele>286.00000</ele>
        <time>2010-01-01T00:09:47Z</time>
      </trkpt>
      <trkpt lat="31.80571000" lon="35.00421000">
        <ele>288.00000</ele>
        <time>2010-01-01T00:09:53Z</time>
      </trkpt>
      <trkpt lat="31.80560000" lon="35.00421000">
        <ele>290.00000</ele>
        <time>2010-01-01T00:09:57Z</time>
      </trkpt>
      <trkpt lat="31.80546000" lon="35.00424000">
        <ele>290.00000</ele>
        <time>2010-01-01T00:10:03Z</time>
      </trkpt>
      <trkpt lat="31.80511000" lon="35.00436000">
        <ele>285.00000</ele>
        <time>2010-01-01T00:10:18Z</time>
      </trkpt>
      <trkpt lat="31.80497000" lon="35.00444000">
        <ele>282.00000</ele>
        <time>2010-01-01T00:10:24Z</time>
      </trkpt>
      <trkpt lat="31.80488000" lon="35.00457000">
        <ele>283.00000</ele>
        <time>2010-01-01T00:10:30Z</time>
      </trkpt>
      <trkpt lat="31.80488000" lon="35.00458000">
        <ele>283.00000</ele>
        <time>2010-01-01T00:10:30Z</time>
      </trkpt>
      <trkpt lat="31.80485000" lon="35.00467000">
        <ele>283.00000</ele>
        <time>2010-01-01T00:10:33Z</time>
      </trkpt>
      <trkpt lat="31.80484000" lon="35.00480000">
        <ele>284.00000</ele>
        <time>2010-01-01T00:10:38Z</time>
      </trkpt>
      <trkpt lat="31.80486000" lon="35.00491000">
        <ele>284.00000</ele>
        <time>2010-01-01T00:10:42Z</time>
      </trkpt>
      <trkpt lat="31.80489000" lon="35.00519000">
        <ele>283.00000</ele>
        <time>2010-01-01T00:10:51Z</time>
      </trkpt>
      <trkpt lat="31.80489000" lon="35.00541000">
        <ele>284.00000</ele>
        <time>2010-01-01T00:10:59Z</time>
      </trkpt>
      <trkpt lat="31.80491000" lon="35.00569000">
        <ele>284.00000</ele>
        <time>2010-01-01T00:11:08Z</time>
      </trkpt>
      <trkpt lat="31.80490000" lon="35.00596000">
        <ele>284.00000</ele>
        <time>2010-01-01T00:11:17Z</time>
      </trkpt>
      <trkpt lat="31.80487000" lon="35.00613000">
        <ele>284.00000</ele>
        <time>2010-01-01T00:11:23Z</time>
      </trkpt>
      <trkpt lat="31.80477000" lon="35.00644000">
        <ele>284.00000</ele>
        <time>2010-01-01T00:11:35Z</time>
      </trkpt>
      <trkpt lat="31.80459000" lon="35.00676000">
        <ele>283.00000</ele>
        <time>2010-01-01T00:11:48Z</time>
      </trkpt>
      <trkpt lat="31.80425000" lon="35.00721000">
        <ele>284.00000</ele>
        <time>2010-01-01T00:12:08Z</time>
      </trkpt>
      <trkpt lat="31.80409000" lon="35.00737000">
        <ele>284.00000</ele>
        <time>2010-01-01T00:12:17Z</time>
      </trkpt>
      <trkpt lat="31.80370000" lon="35.00763000">
        <ele>286.00000</ele>
        <time>2010-01-01T00:12:34Z</time>
      </trkpt>
      <trkpt lat="31.80363000" lon="35.00767000">
        <ele>287.00000</ele>
        <time>2010-01-01T00:12:38Z</time>
      </trkpt>
      <trkpt lat="31.80355000" lon="35.00771000">
        <ele>288.00000</ele>
        <time>2010-01-01T00:12:41Z</time>
      </trkpt>
      <trkpt lat="31.80297000" lon="35.00796000">
        <ele>290.00000</ele>
        <time>2010-01-01T00:13:06Z</time>
      </trkpt>
      <trkpt lat="31.80268000" lon="35.00805000">
        <ele>289.00000</ele>
        <time>2010-01-01T00:13:18Z</time>
      </trkpt>
      <trkpt lat="31.80259000" lon="35.00811000">
        <ele>289.00000</ele>
        <time>2010-01-01T00:13:22Z</time>
      </trkpt>
      <trkpt lat="31.80255000" lon="35.00816000">
        <ele>288.00000</ele>
        <time>2010-01-01T00:13:24Z</time>
      </trkpt>
      <trkpt lat="31.80252000" lon="35.00829000">
        <ele>288.00000</ele>
        <time>2010-01-01T00:13:29Z</time>
      </trkpt>
      <trkpt lat="31.80251000" lon="35.00833000">
        <ele>287.00000</ele>
        <time>2010-01-01T00:13:30Z</time>
      </trkpt>
      <trkpt lat="31.80252000" lon="35.00845000">
        <ele>288.00000</ele>
        <time>2010-01-01T00:13:34Z</time>
      </trkpt>
      <trkpt lat="31.80265000" lon="35.00904000">
        <ele>289.00000</ele>
        <time>2010-01-01T00:13:55Z</time>
      </trkpt>
      <trkpt lat="31.80266000" lon="35.00996000">
        <ele>292.00000</ele>
        <time>2010-01-01T00:14:26Z</time>
      </trkpt>
      <trkpt lat="31.80273000" lon="35.01033000">
        <ele>288.00000</ele>
        <time>2010-01-01T00:14:39Z</time>
      </trkpt>
      <trkpt lat="31.80275000" lon="35.01048000">
        <ele>288.00000</ele>
        <time>2010-01-01T00:14:44Z</time>
      </trkpt>
      <trkpt lat="31.80274000" lon="35.01069000">
        <ele>288.00000</ele>
        <time>2010-01-01T00:14:52Z</time>
      </trkpt>
      <trkpt lat="31.80270000" lon="35.01070000">
        <ele>289.00000</ele>
        <time>2010-01-01T00:14:53Z</time>
      </trkpt>
      <trkpt lat="31.80236000" lon="35.01122000">
        <ele>291.00000</ele>
        <time>2010-01-01T00:15:16Z</time>
      </trkpt>
      <trkpt lat="31.80227000" lon="35.01133000">
        <ele>292.00000</ele>
        <time>2010-01-01T00:15:21Z</time>
      </trkpt>
      <trkpt lat="31.80213000" lon="35.01145000">
        <ele>294.00000</ele>
        <time>2010-01-01T00:15:28Z</time>
      </trkpt>
      <trkpt lat="31.80190000" lon="35.01151000">
        <ele>296.00000</ele>
        <time>2010-01-01T00:15:37Z</time>
      </trkpt>
      <trkpt lat="31.80189000" lon="35.01154000">
        <ele>296.00000</ele>
        <time>2010-01-01T00:15:38Z</time>
      </trkpt>
      <trkpt lat="31.80183000" lon="35.01162000">
        <ele>297.00000</ele>
        <time>2010-01-01T00:15:42Z</time>
      </trkpt>
      <trkpt lat="31.80181000" lon="35.01162000">
        <ele>297.00000</ele>
        <time>2010-01-01T00:15:43Z</time>
      </trkpt>
      <trkpt lat="31.80178000" lon="35.01162000">
        <ele>297.00000</ele>
        <time>2010-01-01T00:15:44Z</time>
      </trkpt>
      <trkpt lat="31.80175000" lon="35.01161000">
        <ele>298.00000</ele>
        <time>2010-01-01T00:15:45Z</time>
      </trkpt>
      <trkpt lat="31.80169000" lon="35.01173000">
        <ele>297.00000</ele>
        <time>2010-01-01T00:15:50Z</time>
      </trkpt>
      <trkpt lat="31.80160000" lon="35.01184000">
        <ele>297.00000</ele>
        <time>2010-01-01T00:15:55Z</time>
      </trkpt>
      <trkpt lat="31.80136000" lon="35.01202000">
        <ele>298.00000</ele>
        <time>2010-01-01T00:16:06Z</time>
      </trkpt>
      <trkpt lat="31.80112000" lon="35.01213000">
        <ele>299.00000</ele>
        <time>2010-01-01T00:16:17Z</time>
      </trkpt>
      <trkpt lat="31.80089000" lon="35.01218000">
        <ele>300.00000</ele>
        <time>2010-01-01T00:16:26Z</time>
      </trkpt>
      <trkpt lat="31.79935000" lon="35.01234000">
        <ele>308.00000</ele>
        <time>2010-01-01T00:17:28Z</time>
      </trkpt>
      <trkpt lat="31.79934000" lon="35.01236000">
        <ele>307.00000</ele>
        <time>2010-01-01T00:17:29Z</time>
      </trkpt>
      <trkpt lat="31.79935000" lon="35.01234000">
        <ele>308.00000</ele>
        <time>2010-01-01T00:17:30Z</time>
      </trkpt>
      <trkpt lat="31.79877000" lon="35.01188000">
        <ele>313.00000</ele>
        <time>2010-01-01T00:17:58Z</time>
      </trkpt>
      <trkpt lat="31.79866000" lon="35.01179000">
        <ele>314.00000</ele>
        <time>2010-01-01T00:18:03Z</time>
      </trkpt>
      <trkpt lat="31.79825000" lon="35.01140000">
        <ele>322.00000</ele>
        <time>2010-01-01T00:18:24Z</time>
      </trkpt>
      <trkpt lat="31.79794000" lon="35.01133000">
        <ele>325.00000</ele>
        <time>2010-01-01T00:18:37Z</time>
      </trkpt>
      <trkpt lat="31.79761000" lon="35.01118000">
        <ele>330.00000</ele>
        <time>2010-01-01T00:18:51Z</time>
      </trkpt>
      <trkpt lat="31.79742000" lon="35.01121000">
        <ele>331.00000</ele>
        <time>2010-01-01T00:18:59Z</time>
      </trkpt>
      <trkpt lat="31.79723000" lon="35.01127000">
        <ele>332.00000</ele>
        <time>2010-01-01T00:19:06Z</time>
      </trkpt>
      <trkpt lat="31.79687000" lon="35.01136000">
        <ele>335.00000</ele>
        <time>2010-01-01T00:19:21Z</time>
      </trkpt>
      <trkpt lat="31.79644000" lon="35.01138000">
        <ele>340.00000</ele>
        <time>2010-01-01T00:19:38Z</time>
      </trkpt>
      <trkpt lat="31.79602000" lon="35.01142000">
        <ele>339.00000</ele>
        <time>2010-01-01T00:19:55Z</time>
      </trkpt>
      <trkpt lat="31.79589000" lon="35.01142000">
        <ele>339.00000</ele>
        <time>2010-01-01T00:20:00Z</time>
      </trkpt>
      <trkpt lat="31.79568000" lon="35.01136000">
        <ele>340.00000</ele>
        <time>2010-01-01T00:20:09Z</time>
      </trkpt>
      <trkpt lat="31.79559000" lon="35.01132000">
        <ele>340.00000</ele>
        <time>2010-01-01T00:20:13Z</time>
      </trkpt>
      <trkpt lat="31.79538000" lon="35.01120000">
        <ele>341.00000</ele>
        <time>2010-01-01T00:20:22Z</time>
      </trkpt>
      <trkpt lat="31.79539000" lon="35.01120000">
        <ele>341.00000</ele>
        <time>2010-01-01T00:20:23Z</time>
      </trkpt>
      <trkpt lat="31.79516000" lon="35.01106000">
        <ele>343.00000</ele>
        <time>2010-01-01T00:20:33Z</time>
      </trkpt>
      <trkpt lat="31.79507000" lon="35.01102000">
        <ele>343.00000</ele>
        <time>2010-01-01T00:20:37Z</time>
      </trkpt>
      <trkpt lat="31.79492000" lon="35.01099000">
        <ele>344.00000</ele>
        <time>2010-01-01T00:20:43Z</time>
      </trkpt>
      <trkpt lat="31.79452000" lon="35.01095000">
        <ele>347.00000</ele>
        <time>2010-01-01T00:20:59Z</time>
      </trkpt>
      <trkpt lat="31.79444000" lon="35.01096000">
        <ele>348.00000</ele>
        <time>2010-01-01T00:21:02Z</time>
      </trkpt>
      <trkpt lat="31.79439000" lon="35.01099000">
        <ele>347.00000</ele>
        <time>2010-01-01T00:21:05Z</time>
      </trkpt>
      <trkpt lat="31.79421000" lon="35.01121000">
        <ele>344.00000</ele>
        <time>2010-01-01T00:21:15Z</time>
      </trkpt>
      <trkpt lat="31.79413000" lon="35.01124000">
        <ele>344.00000</ele>
        <time>2010-01-01T00:21:18Z</time>
      </trkpt>
      <trkpt lat="31.79399000" lon="35.01125000">
        <ele>345.00000</ele>
        <time>2010-01-01T00:21:24Z</time>
      </trkpt>
      <trkpt lat="31.79359000" lon="35.01124000">
        <ele>350.00000</ele>
        <time>2010-01-01T00:21:40Z</time>
      </trkpt>
      <trkpt lat="31.79320000" lon="35.01107000">
        <ele>354.00000</ele>
        <time>2010-01-01T00:21:57Z</time>
      </trkpt>
      <trkpt lat="31.79296000" lon="35.01101000">
        <ele>357.00000</ele>
        <time>2010-01-01T00:22:06Z</time>
      </trkpt>
      <trkpt lat="31.79267000" lon="35.01105000">
        <ele>360.00000</ele>
        <time>2010-01-01T00:22:18Z</time>
      </trkpt>
      <trkpt lat="31.79258000" lon="35.01103000">
        <ele>361.00000</ele>
        <time>2010-01-01T00:22:22Z</time>
      </trkpt>
      <trkpt lat="31.79242000" lon="35.01086000">
        <ele>363.00000</ele>
        <time>2010-01-01T00:22:30Z</time>
      </trkpt>
      <trkpt lat="31.79216000" lon="35.01074000">
        <ele>366.00000</ele>
        <time>2010-01-01T00:22:42Z</time>
      </trkpt>
      <trkpt lat="31.79194000" lon="35.01069000">
        <ele>367.00000</ele>
        <time>2010-01-01T00:22:51Z</time>
      </trkpt>
      <trkpt lat="31.79167000" lon="35.01061000">
        <ele>367.00000</ele>
        <time>2010-01-01T00:23:02Z</time>
      </trkpt>
      <trkpt lat="31.79168000" lon="35.01061000">
        <ele>367.00000</ele>
        <time>2010-01-01T00:23:02Z</time>
      </trkpt>
      <trkpt lat="31.79122000" lon="35.01046000">
        <ele>369.00000</ele>
        <time>2010-01-01T00:23:21Z</time>
      </trkpt>
      <trkpt lat="31.79050000" lon="35.01029000">
        <ele>368.00000</ele>
        <time>2010-01-01T00:23:51Z</time>
      </trkpt>
      <trkpt lat="31.79025000" lon="35.01025000">
        <ele>371.00000</ele>
        <time>2010-01-01T00:24:01Z</time>
      </trkpt>
      <trkpt lat="31.79014000" lon="35.01028000">
        <ele>371.00000</ele>
        <time>2010-01-01T00:24:05Z</time>
      </trkpt>
      <trkpt lat="31.78994000" lon="35.01039000">
        <ele>370.00000</ele>
        <time>2010-01-01T00:24:14Z</time>
      </trkpt>
      <trkpt lat="31.78975000" lon="35.01052000">
        <ele>368.00000</ele>
        <time>2010-01-01T00:24:23Z</time>
      </trkpt>
      <trkpt lat="31.78945000" lon="35.01060000">
        <ele>367.00000</ele>
        <time>2010-01-01T00:24:35Z</time>
      </trkpt>
      <trkpt lat="31.78897000" lon="35.01052000">
        <ele>369.00000</ele>
        <time>2010-01-01T00:24:55Z</time>
      </trkpt>
      <trkpt lat="31.78879000" lon="35.01045000">
        <ele>371.00000</ele>
        <time>2010-01-01T00:25:02Z</time>
      </trkpt>
      <trkpt lat="31.78865000" lon="35.01043000">
        <ele>372.00000</ele>
        <time>2010-01-01T00:25:08Z</time>
      </trkpt>
      <trkpt lat="31.78817000" lon="35.01048000">
        <ele>375.00000</ele>
        <time>2010-01-01T00:25:27Z</time>
      </trkpt>
      <trkpt lat="31.78764000" lon="35.01053000">
        <ele>375.00000</ele>
        <time>2010-01-01T00:25:48Z</time>
      </trkpt>
      <trkpt lat="31.78706000" lon="35.01051000">
        <ele>372.00000</ele>
        <time>2010-01-01T00:26:12Z</time>
      </trkpt>
      <trkpt lat="31.78677000" lon="35.01053000">
        <ele>372.00000</ele>
        <time>2010-01-01T00:26:23Z</time>
      </trkpt>
      <trkpt lat="31.78655000" lon="35.01061000">
        <ele>371.00000</ele>
        <time>2010-01-01T00:26:32Z</time>
      </trkpt>
      <trkpt lat="31.78644000" lon="35.01068000">
        <ele>370.00000</ele>
        <time>2010-01-01T00:26:37Z</time>
      </trkpt>
      <trkpt lat="31.78633000" lon="35.01078000">
        <ele>370.00000</ele>
        <time>2010-01-01T00:26:43Z</time>
      </trkpt>
      <trkpt lat="31.78607000" lon="35.01104000">
        <ele>369.00000</ele>
        <time>2010-01-01T00:26:57Z</time>
      </trkpt>
      <trkpt lat="31.78591000" lon="35.01118000">
        <ele>370.00000</ele>
        <time>2010-01-01T00:27:05Z</time>
      </trkpt>
      <trkpt lat="31.78574000" lon="35.01129000">
        <ele>369.00000</ele>
        <time>2010-01-01T00:27:12Z</time>
      </trkpt>
      <trkpt lat="31.78552000" lon="35.01136000">
        <ele>368.00000</ele>
        <time>2010-01-01T00:27:22Z</time>
      </trkpt>
      <trkpt lat="31.78545000" lon="35.01136000">
        <ele>367.00000</ele>
        <time>2010-01-01T00:27:24Z</time>
      </trkpt>
      <trkpt lat="31.78527000" lon="35.01132000">
        <ele>366.00000</ele>
        <time>2010-01-01T00:27:32Z</time>
      </trkpt>
      <trkpt lat="31.78511000" lon="35.01124000">
        <ele>364.00000</ele>
        <time>2010-01-01T00:27:39Z</time>
      </trkpt>
      <trkpt lat="31.78501000" lon="35.01113000">
        <ele>363.00000</ele>
        <time>2010-01-01T00:27:44Z</time>
      </trkpt>
      <trkpt lat="31.78495000" lon="35.01100000">
        <ele>364.00000</ele>
        <time>2010-01-01T00:27:49Z</time>
      </trkpt>
      <trkpt lat="31.78489000" lon="35.01079000">
        <ele>365.00000</ele>
        <time>2010-01-01T00:27:57Z</time>
      </trkpt>
      <trkpt lat="31.78489000" lon="35.01068000">
        <ele>366.00000</ele>
        <time>2010-01-01T00:28:00Z</time>
      </trkpt>
      <trkpt lat="31.78493000" lon="35.01001000">
        <ele>371.00000</ele>
        <time>2010-01-01T00:28:23Z</time>
      </trkpt>
      <trkpt lat="31.78498000" lon="35.00967000">
        <ele>369.00000</ele>
        <time>2010-01-01T00:28:35Z</time>
      </trkpt>
      <trkpt lat="31.78501000" lon="35.00955000">
        <ele>369.00000</ele>
        <time>2010-01-01T00:28:39Z</time>
      </trkpt>
      <trkpt lat="31.78514000" lon="35.00929000">
        <ele>368.00000</ele>
        <time>2010-01-01T00:28:50Z</time>
      </trkpt>
      <trkpt lat="31.78520000" lon="35.00921000">
        <ele>367.00000</ele>
        <time>2010-01-01T00:28:53Z</time>
      </trkpt>
      <trkpt lat="31.78533000" lon="35.00910000">
        <ele>367.00000</ele>
        <time>2010-01-01T00:29:00Z</time>
      </trkpt>
      <trkpt lat="31.78550000" lon="35.00900000">
        <ele>366.00000</ele>
        <time>2010-01-01T00:29:07Z</time>
      </trkpt>
      <trkpt lat="31.78566000" lon="35.00894000">
        <ele>366.00000</ele>
        <time>2010-01-01T00:29:14Z</time>
      </trkpt>
      <trkpt lat="31.78595000" lon="35.00888000">
        <ele>368.00000</ele>
        <time>2010-01-01T00:29:26Z</time>
      </trkpt>
      <trkpt lat="31.78636000" lon="35.00893000">
        <ele>371.00000</ele>
        <time>2010-01-01T00:29:42Z</time>
      </trkpt>
      <trkpt lat="31.78683000" lon="35.00902000">
        <ele>373.00000</ele>
        <time>2010-01-01T00:30:01Z</time>
      </trkpt>
      <trkpt lat="31.78684000" lon="35.00902000">
        <ele>373.00000</ele>
        <time>2010-01-01T00:30:02Z</time>
      </trkpt>
      <trkpt lat="31.78689000" lon="35.00903000">
        <ele>373.00000</ele>
        <time>2010-01-01T00:30:04Z</time>
      </trkpt>
      <trkpt lat="31.78727000" lon="35.00912000">
        <ele>375.00000</ele>
        <time>2010-01-01T00:30:19Z</time>
      </trkpt>
      <trkpt lat="31.78749000" lon="35.00915000">
        <ele>376.00000</ele>
        <time>2010-01-01T00:30:28Z</time>
      </trkpt>
      <trkpt lat="31.78762000" lon="35.00914000">
        <ele>377.00000</ele>
        <time>2010-01-01T00:30:33Z</time>
      </trkpt>
      <trkpt lat="31.78775000" lon="35.00911000">
        <ele>378.00000</ele>
        <time>2010-01-01T00:30:39Z</time>
      </trkpt>
      <trkpt lat="31.78809000" lon="35.00898000">
        <ele>379.00000</ele>
        <time>2010-01-01T00:30:53Z</time>
      </trkpt>
      <trkpt lat="31.78852000" lon="35.00890000">
        <ele>381.00000</ele>
        <time>2010-01-01T00:31:10Z</time>
      </trkpt>
      <trkpt lat="31.78868000" lon="35.00885000">
        <ele>381.00000</ele>
        <time>2010-01-01T00:31:17Z</time>
      </trkpt>
      <trkpt lat="31.78909000" lon="35.00869000">
        <ele>382.00000</ele>
        <time>2010-01-01T00:31:34Z</time>
      </trkpt>
      <trkpt lat="31.78950000" lon="35.00857000">
        <ele>384.00000</ele>
        <time>2010-01-01T00:31:51Z</time>
      </trkpt>
      <trkpt lat="31.78958000" lon="35.00855000">
        <ele>385.00000</ele>
        <time>2010-01-01T00:31:54Z</time>
      </trkpt>
      <trkpt lat="31.78978000" lon="35.00845000">
        <ele>386.00000</ele>
        <time>2010-01-01T00:32:03Z</time>
      </trkpt>
      <trkpt lat="31.78989000" lon="35.00836000">
        <ele>386.00000</ele>
        <time>2010-01-01T00:32:09Z</time>
      </trkpt>
      <trkpt lat="31.78997000" lon="35.00826000">
        <ele>387.00000</ele>
        <time>2010-01-01T00:32:13Z</time>
      </trkpt>
      <trkpt lat="31.79004000" lon="35.00817000">
        <ele>387.00000</ele>
        <time>2010-01-01T00:32:17Z</time>
      </trkpt>
      <trkpt lat="31.79023000" lon="35.00788000">
        <ele>388.00000</ele>
        <time>2010-01-01T00:32:30Z</time>
      </trkpt>
      <trkpt lat="31.79055000" lon="35.00734000">
        <ele>391.00000</ele>
        <time>2010-01-01T00:32:52Z</time>
      </trkpt>
      <trkpt lat="31.79072000" lon="35.00719000">
        <ele>391.00000</ele>
        <time>2010-01-01T00:33:01Z</time>
      </trkpt>
      <trkpt lat="31.79108000" lon="35.00695000">
        <ele>392.00000</ele>
        <time>2010-01-01T00:33:17Z</time>
      </trkpt>
      <trkpt lat="31.79141000" lon="35.00663000">
        <ele>393.00000</ele>
        <time>2010-01-01T00:33:34Z</time>
      </trkpt>
      <trkpt lat="31.79271000" lon="35.00540000">
        <ele>397.00000</ele>
        <time>2010-01-01T00:34:41Z</time>
      </trkpt>
      <trkpt lat="31.79274000" lon="35.00538000">
        <ele>396.00000</ele>
        <time>2010-01-01T00:34:43Z</time>
      </trkpt>
      <trkpt lat="31.79292000" lon="35.00517000">
        <ele>395.00000</ele>
        <time>2010-01-01T00:34:53Z</time>
      </trkpt>
      <trkpt lat="31.79292000" lon="35.00516000">
        <ele>395.00000</ele>
        <time>2010-01-01T00:34:53Z</time>
      </trkpt>
      <trkpt lat="31.79292590" lon="35.00516650">
        <ele>394.00000</ele>
        <time>2010-01-01T00:34:53Z</time>
      </trkpt>
      <trkpt lat="31.79303990" lon="35.00472660">
        <ele>393.00000</ele>
        <time>2010-01-01T00:35:09Z</time>
      </trkpt>
      <trkpt lat="31.79309920" lon="35.00457100">
        <ele>392.00000</ele>
        <time>2010-01-01T00:35:15Z</time>
      </trkpt>
      <trkpt lat="31.79323140" lon="35.00457640">
        <ele>392.00000</ele>
        <time>2010-01-01T00:35:20Z</time>
      </trkpt>
      <trkpt lat="31.79340010" lon="35.00454420">
        <ele>393.00000</ele>
        <time>2010-01-01T00:35:27Z</time>
      </trkpt>
      <trkpt lat="31.79355520" lon="35.00447450">
        <ele>394.00000</ele>
        <time>2010-01-01T00:35:34Z</time>
      </trkpt>
      <trkpt lat="31.79367000" lon="35.00434000">
        <ele>396.00000</ele>
        <time>2010-01-01T00:35:40Z</time>
      </trkpt>
      <trkpt lat="31.79390000" lon="35.00402000">
        <ele>399.00000</ele>
        <time>2010-01-01T00:35:54Z</time>
      </trkpt>
      <trkpt lat="31.79400000" lon="35.00384000">
        <ele>398.00000</ele>
        <time>2010-01-01T00:36:02Z</time>
      </trkpt>
      <trkpt lat="31.79407000" lon="35.00364000">
        <ele>398.00000</ele>
        <time>2010-01-01T00:36:09Z</time>
      </trkpt>
      <trkpt lat="31.79441000" lon="35.00302000">
        <ele>393.00000</ele>
        <time>2010-01-01T00:36:34Z</time>
      </trkpt>
      <trkpt lat="31.79449000" lon="35.00290000">
        <ele>393.00000</ele>
        <time>2010-01-01T00:36:39Z</time>
      </trkpt>
      <trkpt lat="31.79462000" lon="35.00275000">
        <ele>393.00000</ele>
        <time>2010-01-01T00:36:47Z</time>
      </trkpt>
      <trkpt lat="31.79489000" lon="35.00251000">
        <ele>393.00000</ele>
        <time>2010-01-01T00:37:00Z</time>
      </trkpt>
      <trkpt lat="31.79565000" lon="35.00171000">
        <ele>385.00000</ele>
        <time>2010-01-01T00:37:41Z</time>
      </trkpt>
      <trkpt lat="31.79572000" lon="35.00162000">
        <ele>385.00000</ele>
        <time>2010-01-01T00:37:45Z</time>
      </trkpt>
      <trkpt lat="31.79580000" lon="35.00149000">
        <ele>385.00000</ele>
        <time>2010-01-01T00:37:51Z</time>
      </trkpt>
      <trkpt lat="31.79591000" lon="35.00125000">
        <ele>385.00000</ele>
        <time>2010-01-01T00:38:00Z</time>
      </trkpt>
      <trkpt lat="31.79591000" lon="35.00110000">
        <ele>385.00000</ele>
        <time>2010-01-01T00:38:05Z</time>
      </trkpt>
      <trkpt lat="31.79587000" lon="35.00100000">
        <ele>384.00000</ele>
        <time>2010-01-01T00:38:09Z</time>
      </trkpt>
      <trkpt lat="31.79582000" lon="35.00092000">
        <ele>383.00000</ele>
        <time>2010-01-01T00:38:12Z</time>
      </trkpt>
      <trkpt lat="31.79565000" lon="35.00079000">
        <ele>382.00000</ele>
        <time>2010-01-01T00:38:20Z</time>
      </trkpt>
      <trkpt lat="31.79541000" lon="35.00066000">
        <ele>379.00000</ele>
        <time>2010-01-01T00:38:31Z</time>
      </trkpt>
      <trkpt lat="31.79532000" lon="35.00064000">
        <ele>378.00000</ele>
        <time>2010-01-01T00:38:34Z</time>
      </trkpt>
      <trkpt lat="31.79505000" lon="35.00064000">
        <ele>375.00000</ele>
        <time>2010-01-01T00:38:45Z</time>
      </trkpt>
      <trkpt lat="31.79491000" lon="35.00066000">
        <ele>375.00000</ele>
        <time>2010-01-01T00:38:51Z</time>
      </trkpt>
      <trkpt lat="31.79478000" lon="35.00071000">
        <ele>376.00000</ele>
        <time>2010-01-01T00:38:56Z</time>
      </trkpt>
      <trkpt lat="31.79478620" lon="35.00071400">
        <ele>376.00000</ele>
        <time>2010-01-01T00:38:57Z</time>
      </trkpt>
      <trkpt lat="31.79453090" lon="35.00079450">
        <ele>376.00000</ele>
        <time>2010-01-01T00:39:07Z</time>
      </trkpt>
      <trkpt lat="31.79435310" lon="35.00072470">
        <ele>375.00000</ele>
        <time>2010-01-01T00:39:15Z</time>
      </trkpt>
      <trkpt lat="31.79420260" lon="35.00064430">
        <ele>374.00000</ele>
        <time>2010-01-01T00:39:21Z</time>
      </trkpt>
      <trkpt lat="31.79397460" lon="35.00052090">
        <ele>374.00000</ele>
        <time>2010-01-01T00:39:31Z</time>
      </trkpt>
      <trkpt lat="31.79360000" lon="35.00050000">
        <ele>376.00000</ele>
        <time>2010-01-01T00:39:46Z</time>
      </trkpt>
      <trkpt lat="31.79307000" lon="35.00052000">
        <ele>381.00000</ele>
        <time>2010-01-01T00:40:08Z</time>
      </trkpt>
      <trkpt lat="31.79285000" lon="35.00046000">
        <ele>382.00000</ele>
        <time>2010-01-01T00:40:17Z</time>
      </trkpt>
      <trkpt lat="31.79268000" lon="35.00038000">
        <ele>382.00000</ele>
        <time>2010-01-01T00:40:24Z</time>
      </trkpt>
      <trkpt lat="31.79255000" lon="35.00030000">
        <ele>382.00000</ele>
        <time>2010-01-01T00:40:30Z</time>
      </trkpt>
      <trkpt lat="31.79247000" lon="35.00021000">
        <ele>382.00000</ele>
        <time>2010-01-01T00:40:34Z</time>
      </trkpt>
      <trkpt lat="31.79242000" lon="35.00012000">
        <ele>383.00000</ele>
        <time>2010-01-01T00:40:38Z</time>
      </trkpt>
      <trkpt lat="31.79237000" lon="34.99999000">
        <ele>384.00000</ele>
        <time>2010-01-01T00:40:43Z</time>
      </trkpt>
      <trkpt lat="31.79233000" lon="34.99974000">
        <ele>387.00000</ele>
        <time>2010-01-01T00:40:51Z</time>
      </trkpt>
      <trkpt lat="31.79227000" lon="34.99966000">
        <ele>388.00000</ele>
        <time>2010-01-01T00:40:55Z</time>
      </trkpt>
      <trkpt lat="31.79218000" lon="34.99959000">
        <ele>389.00000</ele>
        <time>2010-01-01T00:40:59Z</time>
      </trkpt>
      <trkpt lat="31.79210000" lon="34.99957000">
        <ele>389.00000</ele>
        <time>2010-01-01T00:41:03Z</time>
      </trkpt>
      <trkpt lat="31.79198000" lon="34.99950000">
        <ele>388.00000</ele>
        <time>2010-01-01T00:41:08Z</time>
      </trkpt>
      <trkpt lat="31.79176000" lon="34.99926000">
        <ele>387.00000</ele>
        <time>2010-01-01T00:41:20Z</time>
      </trkpt>
      <trkpt lat="31.79155000" lon="34.99910000">
        <ele>385.00000</ele>
        <time>2010-01-01T00:41:30Z</time>
      </trkpt>
      <trkpt lat="31.79156000" lon="34.99910000">
        <ele>385.00000</ele>
        <time>2010-01-01T00:41:30Z</time>
      </trkpt>
      <trkpt lat="31.79143000" lon="34.99900000">
        <ele>385.00000</ele>
        <time>2010-01-01T00:41:37Z</time>
      </trkpt>
      <trkpt lat="31.79120000" lon="34.99876000">
        <ele>385.00000</ele>
        <time>2010-01-01T00:41:49Z</time>
      </trkpt>
      <trkpt lat="31.79104000" lon="34.99863000">
        <ele>385.00000</ele>
        <time>2010-01-01T00:41:57Z</time>
      </trkpt>
      <trkpt lat="31.79095000" lon="34.99851000">
        <ele>384.00000</ele>
        <time>2010-01-01T00:42:02Z</time>
      </trkpt>
      <trkpt lat="31.79086000" lon="34.99832000">
        <ele>385.00000</ele>
        <time>2010-01-01T00:42:10Z</time>
      </trkpt>
      <trkpt lat="31.79086000" lon="34.99815000">
        <ele>385.00000</ele>
        <time>2010-01-01T00:42:15Z</time>
      </trkpt>
      <trkpt lat="31.79089000" lon="34.99809000">
        <ele>386.00000</ele>
        <time>2010-01-01T00:42:18Z</time>
      </trkpt>
      <trkpt lat="31.79096000" lon="34.99803000">
        <ele>386.00000</ele>
        <time>2010-01-01T00:42:21Z</time>
      </trkpt>
      <trkpt lat="31.79104000" lon="34.99801000">
        <ele>387.00000</ele>
        <time>2010-01-01T00:42:25Z</time>
      </trkpt>
      <trkpt lat="31.79136000" lon="34.99806000">
        <ele>389.00000</ele>
        <time>2010-01-01T00:42:37Z</time>
      </trkpt>
      <trkpt lat="31.79145000" lon="34.99805000">
        <ele>390.00000</ele>
        <time>2010-01-01T00:42:41Z</time>
      </trkpt>
      <trkpt lat="31.79153000" lon="34.99801000">
        <ele>390.00000</ele>
        <time>2010-01-01T00:42:45Z</time>
      </trkpt>
      <trkpt lat="31.79156000" lon="34.99799000">
        <ele>390.00000</ele>
        <time>2010-01-01T00:42:46Z</time>
      </trkpt>
      <trkpt lat="31.79162000" lon="34.99794000">
        <ele>390.00000</ele>
        <time>2010-01-01T00:42:49Z</time>
      </trkpt>
      <trkpt lat="31.79180000" lon="34.99777000">
        <ele>387.00000</ele>
        <time>2010-01-01T00:42:58Z</time>
      </trkpt>
      <trkpt lat="31.79196000" lon="34.99766000">
        <ele>385.00000</ele>
        <time>2010-01-01T00:43:06Z</time>
      </trkpt>
      <trkpt lat="31.79217000" lon="34.99775000">
        <ele>386.00000</ele>
        <time>2010-01-01T00:43:14Z</time>
      </trkpt>
      <trkpt lat="31.79244000" lon="34.99775000">
        <ele>388.00000</ele>
        <time>2010-01-01T00:43:25Z</time>
      </trkpt>
      <trkpt lat="31.79256000" lon="34.99772000">
        <ele>388.00000</ele>
        <time>2010-01-01T00:43:30Z</time>
      </trkpt>
      <trkpt lat="31.79283000" lon="34.99760000">
        <ele>387.00000</ele>
        <time>2010-01-01T00:43:42Z</time>
      </trkpt>
      <trkpt lat="31.79308000" lon="34.99744000">
        <ele>386.00000</ele>
        <time>2010-01-01T00:43:53Z</time>
      </trkpt>
      <trkpt lat="31.79366000" lon="34.99722000">
        <ele>388.00000</ele>
        <time>2010-01-01T00:44:18Z</time>
      </trkpt>
      <trkpt lat="31.79373000" lon="34.99719000">
        <ele>389.00000</ele>
        <time>2010-01-01T00:44:21Z</time>
      </trkpt>
      <trkpt lat="31.79401000" lon="34.99702000">
        <ele>392.00000</ele>
        <time>2010-01-01T00:44:33Z</time>
      </trkpt>
      <trkpt lat="31.79429000" lon="34.99689000">
        <ele>393.00000</ele>
        <time>2010-01-01T00:44:45Z</time>
      </trkpt>
      <trkpt lat="31.79459000" lon="34.99669000">
        <ele>393.00000</ele>
        <time>2010-01-01T00:44:59Z</time>
      </trkpt>
      <trkpt lat="31.79480000" lon="34.99659000">
        <ele>394.00000</ele>
        <time>2010-01-01T00:45:08Z</time>
      </trkpt>
      <trkpt lat="31.79490000" lon="34.99658000">
        <ele>394.00000</ele>
        <time>2010-01-01T00:45:12Z</time>
      </trkpt>
      <trkpt lat="31.79497000" lon="34.99659000">
        <ele>394.00000</ele>
        <time>2010-01-01T00:45:15Z</time>
      </trkpt>
      <trkpt lat="31.79515000" lon="34.99667000">
        <ele>392.00000</ele>
        <time>2010-01-01T00:45:23Z</time>
      </trkpt>
      <trkpt lat="31.79551000" lon="34.99688000">
        <ele>390.00000</ele>
        <time>2010-01-01T00:45:39Z</time>
      </trkpt>
      <trkpt lat="31.79559000" lon="34.99695000">
        <ele>389.00000</ele>
        <time>2010-01-01T00:45:43Z</time>
      </trkpt>
      <trkpt lat="31.79584000" lon="34.99712000">
        <ele>387.00000</ele>
        <time>2010-01-01T00:45:54Z</time>
      </trkpt>
      <trkpt lat="31.79626000" lon="34.99735000">
        <ele>384.00000</ele>
        <time>2010-01-01T00:46:13Z</time>
      </trkpt>
      <trkpt lat="31.79650000" lon="34.99744000">
        <ele>381.00000</ele>
        <time>2010-01-01T00:46:23Z</time>
      </trkpt>
      <trkpt lat="31.79675000" lon="34.99745000">
        <ele>378.00000</ele>
        <time>2010-01-01T00:46:33Z</time>
      </trkpt>
      <trkpt lat="31.79737000" lon="34.99734000">
        <ele>375.00000</ele>
        <time>2010-01-01T00:46:58Z</time>
      </trkpt>
      <trkpt lat="31.79758000" lon="34.99723000">
        <ele>374.00000</ele>
        <time>2010-01-01T00:47:07Z</time>
      </trkpt>
      <trkpt lat="31.79774000" lon="34.99712000">
        <ele>372.00000</ele>
        <time>2010-01-01T00:47:15Z</time>
      </trkpt>
      <trkpt lat="31.79798000" lon="34.99690000">
        <ele>371.00000</ele>
        <time>2010-01-01T00:47:27Z</time>
      </trkpt>
      <trkpt lat="31.79809000" lon="34.99677000">
        <ele>370.00000</ele>
        <time>2010-01-01T00:47:33Z</time>
      </trkpt>
      <trkpt lat="31.79825000" lon="34.99659000">
        <ele>371.00000</ele>
        <time>2010-01-01T00:47:42Z</time>
      </trkpt>
      <trkpt lat="31.79849000" lon="34.99628000">
        <ele>367.00000</ele>
        <time>2010-01-01T00:47:56Z</time>
      </trkpt>
      <trkpt lat="31.79877000" lon="34.99600000">
        <ele>363.00000</ele>
        <time>2010-01-01T00:48:11Z</time>
      </trkpt>
      <trkpt lat="31.79879000" lon="34.99598000">
        <ele>363.00000</ele>
        <time>2010-01-01T00:48:12Z</time>
      </trkpt>
      <trkpt lat="31.79914000" lon="34.99559000">
        <ele>365.00000</ele>
        <time>2010-01-01T00:48:31Z</time>
      </trkpt>
      <trkpt lat="31.79931000" lon="34.99537000">
        <ele>365.00000</ele>
        <time>2010-01-01T00:48:41Z</time>
      </trkpt>
      <trkpt lat="31.79957000" lon="34.99497000">
        <ele>361.00000</ele>
        <time>2010-01-01T00:48:58Z</time>
      </trkpt>
      <trkpt lat="31.79975000" lon="34.99476000">
        <ele>358.00000</ele>
        <time>2010-01-01T00:49:09Z</time>
      </trkpt>
      <trkpt lat="31.79998000" lon="34.99464000">
        <ele>358.00000</ele>
        <time>2010-01-01T00:49:19Z</time>
      </trkpt>
      <trkpt lat="31.80012000" lon="34.99461000">
        <ele>357.00000</ele>
        <time>2010-01-01T00:49:24Z</time>
      </trkpt>
      <trkpt lat="31.80025000" lon="34.99461000">
        <ele>356.00000</ele>
        <time>2010-01-01T00:49:30Z</time>
      </trkpt>
      <trkpt lat="31.80056000" lon="34.99467000">
        <ele>354.00000</ele>
        <time>2010-01-01T00:49:42Z</time>
      </trkpt>
      <trkpt lat="31.80069000" lon="34.99467000">
        <ele>355.00000</ele>
        <time>2010-01-01T00:49:47Z</time>
      </trkpt>
      <trkpt lat="31.80081000" lon="34.99465000">
        <ele>354.00000</ele>
        <time>2010-01-01T00:49:52Z</time>
      </trkpt>
      <trkpt lat="31.80098000" lon="34.99457000">
        <ele>356.00000</ele>
        <time>2010-01-01T00:50:00Z</time>
      </trkpt>
      <trkpt lat="31.80109000" lon="34.99447000">
        <ele>356.00000</ele>
        <time>2010-01-01T00:50:05Z</time>
      </trkpt>
      <trkpt lat="31.80113000" lon="34.99443000">
        <ele>357.00000</ele>
        <time>2010-01-01T00:50:07Z</time>
      </trkpt>
      <trkpt lat="31.80118000" lon="34.99437000">
        <ele>357.00000</ele>
        <time>2010-01-01T00:50:10Z</time>
      </trkpt>
      <trkpt lat="31.80124000" lon="34.99429000">
        <ele>357.00000</ele>
        <time>2010-01-01T00:50:14Z</time>
      </trkpt>
      <trkpt lat="31.80143000" lon="34.99393000">
        <ele>356.00000</ele>
        <time>2010-01-01T00:50:28Z</time>
      </trkpt>
      <trkpt lat="31.80161000" lon="34.99365000">
        <ele>356.00000</ele>
        <time>2010-01-01T00:50:40Z</time>
      </trkpt>
      <trkpt lat="31.80165000" lon="34.99358000">
        <ele>356.00000</ele>
        <time>2010-01-01T00:50:43Z</time>
      </trkpt>
      <trkpt lat="31.80178000" lon="34.99346000">
        <ele>357.00000</ele>
        <time>2010-01-01T00:50:50Z</time>
      </trkpt>
      <trkpt lat="31.80191000" lon="34.99339000">
        <ele>359.00000</ele>
        <time>2010-01-01T00:50:55Z</time>
      </trkpt>
      <trkpt lat="31.80200000" lon="34.99336000">
        <ele>360.00000</ele>
        <time>2010-01-01T00:50:59Z</time>
      </trkpt>
      <trkpt lat="31.80214000" lon="34.99328000">
        <ele>361.00000</ele>
        <time>2010-01-01T00:51:05Z</time>
      </trkpt>
      <trkpt lat="31.80220000" lon="34.99327000">
        <ele>361.00000</ele>
        <time>2010-01-01T00:51:08Z</time>
      </trkpt>
      <trkpt lat="31.80268000" lon="34.99305000">
        <ele>360.00000</ele>
        <time>2010-01-01T00:51:28Z</time>
      </trkpt>
      <trkpt lat="31.80271000" lon="34.99303000">
        <ele>360.00000</ele>
        <time>2010-01-01T00:51:30Z</time>
      </trkpt>
      <trkpt lat="31.80294000" lon="34.99287000">
        <ele>359.00000</ele>
        <time>2010-01-01T00:51:40Z</time>
      </trkpt>
      <trkpt lat="31.80310000" lon="34.99270000">
        <ele>358.00000</ele>
        <time>2010-01-01T00:51:49Z</time>
      </trkpt>
      <trkpt lat="31.80331000" lon="34.99235000">
        <ele>358.00000</ele>
        <time>2010-01-01T00:52:04Z</time>
      </trkpt>
      <trkpt lat="31.80342000" lon="34.99214000">
        <ele>359.00000</ele>
        <time>2010-01-01T00:52:12Z</time>
      </trkpt>
      <trkpt lat="31.80354000" lon="34.99191000">
        <ele>359.00000</ele>
        <time>2010-01-01T00:52:21Z</time>
      </trkpt>
      <trkpt lat="31.80359000" lon="34.99181000">
        <ele>358.00000</ele>
        <time>2010-01-01T00:52:25Z</time>
      </trkpt>
      <trkpt lat="31.80370000" lon="34.99162000">
        <ele>356.00000</ele>
        <time>2010-01-01T00:52:33Z</time>
      </trkpt>
      <trkpt lat="31.80377000" lon="34.99155000">
        <ele>354.00000</ele>
        <time>2010-01-01T00:52:37Z</time>
      </trkpt>
      <trkpt lat="31.80380000" lon="34.99155000">
        <ele>354.00000</ele>
        <time>2010-01-01T00:52:38Z</time>
      </trkpt>
      <trkpt lat="31.80390000" lon="34.99152000">
        <ele>352.00000</ele>
        <time>2010-01-01T00:52:42Z</time>
      </trkpt>
      <trkpt lat="31.80417000" lon="34.99155000">
        <ele>351.00000</ele>
        <time>2010-01-01T00:52:53Z</time>
      </trkpt>
      <trkpt lat="31.80436000" lon="34.99148000">
        <ele>351.00000</ele>
        <time>2010-01-01T00:53:01Z</time>
      </trkpt>
      <trkpt lat="31.80530000" lon="34.99085000">
        <ele>346.00000</ele>
        <time>2010-01-01T00:53:44Z</time>
      </trkpt>
      <trkpt lat="31.80555000" lon="34.99067000">
        <ele>345.00000</ele>
        <time>2010-01-01T00:53:56Z</time>
      </trkpt>
      <trkpt lat="31.80608000" lon="34.99050000">
        <ele>345.00000</ele>
        <time>2010-01-01T00:54:18Z</time>
      </trkpt>
      <trkpt lat="31.80633000" lon="34.99047000">
        <ele>345.00000</ele>
        <time>2010-01-01T00:54:28Z</time>
      </trkpt>
      <trkpt lat="31.80666000" lon="34.99045000">
        <ele>344.00000</ele>
        <time>2010-01-01T00:54:41Z</time>
      </trkpt>
      <trkpt lat="31.80678000" lon="34.99045000">
        <ele>343.00000</ele>
        <time>2010-01-01T00:54:46Z</time>
      </trkpt>
      <trkpt lat="31.80693000" lon="34.99052000">
        <ele>343.00000</ele>
        <time>2010-01-01T00:54:52Z</time>
      </trkpt>
      <trkpt lat="31.80718000" lon="34.99072000">
        <ele>343.00000</ele>
        <time>2010-01-01T00:55:04Z</time>
      </trkpt>
      <trkpt lat="31.80733000" lon="34.99092000">
        <ele>343.00000</ele>
        <time>2010-01-01T00:55:13Z</time>
      </trkpt>
      <trkpt lat="31.80755000" lon="34.99129000">
        <ele>342.00000</ele>
        <time>2010-01-01T00:55:29Z</time>
      </trkpt>
      <trkpt lat="31.80769000" lon="34.99145000">
        <ele>341.00000</ele>
        <time>2010-01-01T00:55:37Z</time>
      </trkpt>
      <trkpt lat="31.80788000" lon="34.99152000">
        <ele>338.00000</ele>
        <time>2010-01-01T00:55:45Z</time>
      </trkpt>
      <trkpt lat="31.80808000" lon="34.99142000">
        <ele>336.00000</ele>
        <time>2010-01-01T00:55:53Z</time>
      </trkpt>
      <trkpt lat="31.80947000" lon="34.99024000">
        <ele>334.00000</ele>
        <time>2010-01-01T00:57:02Z</time>
      </trkpt>
      <trkpt lat="31.81023000" lon="34.98966000">
        <ele>334.00000</ele>
        <time>2010-01-01T00:57:38Z</time>
      </trkpt>
      <trkpt lat="31.81041000" lon="34.98957000">
        <ele>334.00000</ele>
        <time>2010-01-01T00:57:46Z</time>
      </trkpt>
      <trkpt lat="31.81060000" lon="34.98954000">
        <ele>335.00000</ele>
        <time>2010-01-01T00:57:54Z</time>
      </trkpt>
      <trkpt lat="31.81078000" lon="34.98954000">
        <ele>334.00000</ele>
        <time>2010-01-01T00:58:01Z</time>
      </trkpt>
      <trkpt lat="31.81112000" lon="34.98959000">
        <ele>333.00000</ele>
        <time>2010-01-01T00:58:15Z</time>
      </trkpt>
      <trkpt lat="31.81129000" lon="34.98948000">
        <ele>332.00000</ele>
        <time>2010-01-01T00:58:22Z</time>
      </trkpt>
      <trkpt lat="31.81159000" lon="34.98931000">
        <ele>332.00000</ele>
        <time>2010-01-01T00:58:36Z</time>
      </trkpt>
      <trkpt lat="31.81174000" lon="34.98925000">
        <ele>333.00000</ele>
        <time>2010-01-01T00:58:42Z</time>
      </trkpt>
      <trkpt lat="31.81217000" lon="34.98913000">
        <ele>333.00000</ele>
        <time>2010-01-01T00:59:00Z</time>
      </trkpt>
      <trkpt lat="31.81272000" lon="34.98922000">
        <ele>332.00000</ele>
        <time>2010-01-01T00:59:22Z</time>
      </trkpt>
      <trkpt lat="31.81273000" lon="34.98922000">
        <ele>332.00000</ele>
        <time>2010-01-01T00:59:22Z</time>
      </trkpt>
      <trkpt lat="31.81342000" lon="34.98934000">
        <ele>329.00000</ele>
        <time>2010-01-01T00:59:50Z</time>
      </trkpt>
      <trkpt lat="31.81421000" lon="34.98964000">
        <ele>329.00000</ele>
        <time>2010-01-01T01:00:24Z</time>
      </trkpt>
      <trkpt lat="31.81484000" lon="34.99000000">
        <ele>324.00000</ele>
        <time>2010-01-01T01:00:52Z</time>
      </trkpt>
      <trkpt lat="31.81520000" lon="34.99021000">
        <ele>324.00000</ele>
        <time>2010-01-01T01:01:08Z</time>
      </trkpt>
      <trkpt lat="31.81575000" lon="34.99037000">
        <ele>322.00000</ele>
        <time>2010-01-01T01:01:30Z</time>
      </trkpt>
      <trkpt lat="31.81598000" lon="34.99030000">
        <ele>323.00000</ele>
        <time>2010-01-01T01:01:40Z</time>
      </trkpt>
      <trkpt lat="31.81667000" lon="34.99018000">
        <ele>316.00000</ele>
        <time>2010-01-01T01:02:08Z</time>
      </trkpt>
      <trkpt lat="31.81720000" lon="34.99004000">
        <ele>311.00000</ele>
        <time>2010-01-01T01:02:29Z</time>
      </trkpt>
      <trkpt lat="31.81735000" lon="34.99005000">
        <ele>310.00000</ele>
        <time>2010-01-01T01:02:36Z</time>
      </trkpt>
      <trkpt lat="31.81743000" lon="34.99028000">
        <ele>307.00000</ele>
        <time>2010-01-01T01:02:44Z</time>
      </trkpt>
      <trkpt lat="31.81769000" lon="34.99078000">
        <ele>306.00000</ele>
        <time>2010-01-01T01:03:04Z</time>
      </trkpt>
      <trkpt lat="31.81790000" lon="34.99131000">
        <ele>305.00000</ele>
        <time>2010-01-01T01:03:24Z</time>
      </trkpt>
      <trkpt lat="31.81792000" lon="34.99134000">
        <ele>305.00000</ele>
        <time>2010-01-01T01:03:25Z</time>
      </trkpt>
      <trkpt lat="31.81792000" lon="34.99135000">
        <ele>305.00000</ele>
        <time>2010-01-01T01:03:25Z</time>
      </trkpt>
      <trkpt lat="31.81805000" lon="34.99160000">
        <ele>303.00000</ele>
        <time>2010-01-01T01:03:35Z</time>
      </trkpt>
      <trkpt lat="31.81821000" lon="34.99181000">
        <ele>301.00000</ele>
        <time>2010-01-01T01:03:45Z</time>
      </trkpt>
      <trkpt lat="31.81834000" lon="34.99179000">
        <ele>300.00000</ele>
        <time>2010-01-01T01:03:50Z</time>
      </trkpt>
      <trkpt lat="31.81845000" lon="34.99184000">
        <ele>299.00000</ele>
        <time>2010-01-01T01:03:55Z</time>
      </trkpt>
      <trkpt lat="31.81868000" lon="34.99202000">
        <ele>295.00000</ele>
        <time>2010-01-01T01:04:06Z</time>
      </trkpt>
      <trkpt lat="31.81914000" lon="34.99230000">
        <ele>289.00000</ele>
        <time>2010-01-01T01:04:27Z</time>
      </trkpt>
      <trkpt lat="31.81921000" lon="34.99233000">
        <ele>288.00000</ele>
        <time>2010-01-01T01:04:30Z</time>
      </trkpt>
      <trkpt lat="31.81932000" lon="34.99234000">
        <ele>287.00000</ele>
        <time>2010-01-01T01:04:34Z</time>
      </trkpt>
      <trkpt lat="31.81940000" lon="34.99231000">
        <ele>285.00000</ele>
        <time>2010-01-01T01:04:38Z</time>
      </trkpt>
      <trkpt lat="31.81951000" lon="34.99224000">
        <ele>284.00000</ele>
        <time>2010-01-01T01:04:43Z</time>
      </trkpt>
      <trkpt lat="31.81960000" lon="34.99212000">
        <ele>282.00000</ele>
        <time>2010-01-01T01:04:48Z</time>
      </trkpt>
      <trkpt lat="31.81983000" lon="34.99176000">
        <ele>277.00000</ele>
        <time>2010-01-01T01:05:03Z</time>
      </trkpt>
      <trkpt lat="31.82005000" lon="34.99154000">
        <ele>273.00000</ele>
        <time>2010-01-01T01:05:15Z</time>
      </trkpt>
      <trkpt lat="31.82019000" lon="34.99150000">
        <ele>272.00000</ele>
        <time>2010-01-01T01:05:21Z</time>
      </trkpt>
      <trkpt lat="31.82028000" lon="34.99151000">
        <ele>271.00000</ele>
        <time>2010-01-01T01:05:24Z</time>
      </trkpt>
      <trkpt lat="31.82046000" lon="34.99155000">
        <ele>269.00000</ele>
        <time>2010-01-01T01:05:32Z</time>
      </trkpt>
      <trkpt lat="31.82013000" lon="34.99094000">
        <ele>263.00000</ele>
        <time>2010-01-01T01:05:56Z</time>
      </trkpt>
      <trkpt lat="31.82025000" lon="34.99090000">
        <ele>261.00000</ele>
        <time>2010-01-01T01:06:01Z</time>
      </trkpt>
      <trkpt lat="31.82089000" lon="34.99070000">
        <ele>251.00000</ele>
        <time>2010-01-01T01:06:28Z</time>
      </trkpt>
      <trkpt lat="31.82095000" lon="34.99057000">
        <ele>249.00000</ele>
        <time>2010-01-01T01:06:33Z</time>
      </trkpt>
      <trkpt lat="31.82121000" lon="34.99033000">
        <ele>243.00000</ele>
        <time>2010-01-01T01:06:46Z</time>
      </trkpt>
      <trkpt lat="31.82142000" lon="34.99023000">
        <ele>241.00000</ele>
        <time>2010-01-01T01:06:55Z</time>
      </trkpt>
      <trkpt lat="31.82167000" lon="34.99030000">
        <ele>240.00000</ele>
        <time>2010-01-01T01:07:05Z</time>
      </trkpt>
      <trkpt lat="31.82209000" lon="34.99060000">
        <ele>238.00000</ele>
        <time>2010-01-01T01:07:25Z</time>
      </trkpt>
      <trkpt lat="31.82227000" lon="34.99081000">
        <ele>236.00000</ele>
        <time>2010-01-01T01:07:35Z</time>
      </trkpt>
      <trkpt lat="31.82228000" lon="34.99081000">
        <ele>235.00000</ele>
        <time>2010-01-01T01:07:35Z</time>
      </trkpt>
      <trkpt lat="31.82244000" lon="34.99100000">
        <ele>233.00000</ele>
        <time>2010-01-01T01:07:45Z</time>
      </trkpt>
      <trkpt lat="31.82257000" lon="34.99141000">
        <ele>232.00000</ele>
        <time>2010-01-01T01:07:59Z</time>
      </trkpt>
      <trkpt lat="31.82251000" lon="34.99160000">
        <ele>233.00000</ele>
        <time>2010-01-01T01:08:06Z</time>
      </trkpt>
      <trkpt lat="31.82246000" lon="34.99185000">
        <ele>235.00000</ele>
        <time>2010-01-01T01:08:15Z</time>
      </trkpt>
      <trkpt lat="31.82245000" lon="34.99193000">
        <ele>235.00000</ele>
        <time>2010-01-01T01:08:18Z</time>
      </trkpt>
      <trkpt lat="31.82238000" lon="34.99261000">
        <ele>234.00000</ele>
        <time>2010-01-01T01:08:41Z</time>
      </trkpt>
      <trkpt lat="31.82240000" lon="34.99286000">
        <ele>232.00000</ele>
        <time>2010-01-01T01:08:50Z</time>
      </trkpt>
      <trkpt lat="31.82252000" lon="34.99327000">
        <ele>226.00000</ele>
        <time>2010-01-01T01:09:04Z</time>
      </trkpt>
      <trkpt lat="31.82253000" lon="34.99332000">
        <ele>226.00000</ele>
        <time>2010-01-01T01:09:06Z</time>
      </trkpt>
      <trkpt lat="31.82253000" lon="34.99339000">
        <ele>226.00000</ele>
        <time>2010-01-01T01:09:09Z</time>
      </trkpt>
      <trkpt lat="31.82251000" lon="34.99348000">
        <ele>226.00000</ele>
        <time>2010-01-01T01:09:12Z</time>
      </trkpt>
      <trkpt lat="31.82246000" lon="34.99359000">
        <ele>227.00000</ele>
        <time>2010-01-01T01:09:16Z</time>
      </trkpt>
      <trkpt lat="31.82239000" lon="34.99369000">
        <ele>229.00000</ele>
        <time>2010-01-01T01:09:20Z</time>
      </trkpt>
      <trkpt lat="31.82214000" lon="34.99393000">
        <ele>232.00000</ele>
        <time>2010-01-01T01:09:33Z</time>
      </trkpt>
      <trkpt lat="31.82183000" lon="34.99441000">
        <ele>230.00000</ele>
        <time>2010-01-01T01:09:54Z</time>
      </trkpt>
      <trkpt lat="31.82138000" lon="34.99484000">
        <ele>229.00000</ele>
        <time>2010-01-01T01:10:17Z</time>
      </trkpt>
      <trkpt lat="31.82122000" lon="34.99494000">
        <ele>230.00000</ele>
        <time>2010-01-01T01:10:24Z</time>
      </trkpt>
      <trkpt lat="31.82112000" lon="34.99498000">
        <ele>231.00000</ele>
        <time>2010-01-01T01:10:28Z</time>
      </trkpt>
      <trkpt lat="31.82058000" lon="34.99507000">
        <ele>238.00000</ele>
        <time>2010-01-01T01:10:50Z</time>
      </trkpt>
      <trkpt lat="31.82019000" lon="34.99516000">
        <ele>237.00000</ele>
        <time>2010-01-01T01:11:06Z</time>
      </trkpt>
      <trkpt lat="31.81964000" lon="34.99530000">
        <ele>237.00000</ele>
        <time>2010-01-01T01:11:29Z</time>
      </trkpt>
      <trkpt lat="31.81965000" lon="34.99530670">
        <ele>237.00000</ele>
        <time>2010-01-01T01:11:29Z</time>
      </trkpt>
      <trkpt lat="31.81904840" lon="34.99546760">
        <ele>241.00000</ele>
        <time>2010-01-01T01:11:54Z</time>
      </trkpt>
      <trkpt lat="31.81876000" lon="34.99562000">
        <ele>239.00000</ele>
        <time>2010-01-01T01:12:07Z</time>
      </trkpt>
      <trkpt lat="31.81871000" lon="34.99553000">
        <ele>240.00000</ele>
        <time>2010-01-01T01:12:10Z</time>
      </trkpt>
      <trkpt lat="31.81871000" lon="34.99536000">
        <ele>243.00000</ele>
        <time>2010-01-01T01:12:16Z</time>
      </trkpt>
      <trkpt lat="31.81874000" lon="34.99524000">
        <ele>245.00000</ele>
        <time>2010-01-01T01:12:20Z</time>
      </trkpt>
      <trkpt lat="31.81885000" lon="34.99497000">
        <ele>249.00000</ele>
        <time>2010-01-01T01:12:30Z</time>
      </trkpt>
      <trkpt lat="31.81885000" lon="34.99485000">
        <ele>251.00000</ele>
        <time>2010-01-01T01:12:35Z</time>
      </trkpt>
      <trkpt lat="31.81882000" lon="34.99477000">
        <ele>252.00000</ele>
        <time>2010-01-01T01:12:37Z</time>
      </trkpt>
      <trkpt lat="31.81878000" lon="34.99470000">
        <ele>253.00000</ele>
        <time>2010-01-01T01:12:40Z</time>
      </trkpt>
      <trkpt lat="31.81866000" lon="34.99460000">
        <ele>256.00000</ele>
        <time>2010-01-01T01:12:46Z</time>
      </trkpt>
      <trkpt lat="31.81856000" lon="34.99456000">
        <ele>258.00000</ele>
        <time>2010-01-01T01:12:50Z</time>
      </trkpt>
      <trkpt lat="31.81856000" lon="34.99457000">
        <ele>257.00000</ele>
        <time>2010-01-01T01:12:51Z</time>
      </trkpt>
      <trkpt lat="31.81853000" lon="34.99456000">
        <ele>258.00000</ele>
        <time>2010-01-01T01:12:52Z</time>
      </trkpt>
      <trkpt lat="31.81835000" lon="34.99454000">
        <ele>260.00000</ele>
        <time>2010-01-01T01:12:59Z</time>
      </trkpt>
      <trkpt lat="31.81828000" lon="34.99452000">
        <ele>261.00000</ele>
        <time>2010-01-01T01:13:02Z</time>
      </trkpt>
      <trkpt lat="31.81814000" lon="34.99450000">
        <ele>263.00000</ele>
        <time>2010-01-01T01:13:08Z</time>
      </trkpt>
      <trkpt lat="31.81807000" lon="34.99447000">
        <ele>264.00000</ele>
        <time>2010-01-01T01:13:11Z</time>
      </trkpt>
      <trkpt lat="31.81779000" lon="34.99441000">
        <ele>265.00000</ele>
        <time>2010-01-01T01:13:22Z</time>
      </trkpt>
      <trkpt lat="31.81762000" lon="34.99435000">
        <ele>265.00000</ele>
        <time>2010-01-01T01:13:29Z</time>
      </trkpt>
      <trkpt lat="31.81748000" lon="34.99432000">
        <ele>266.00000</ele>
        <time>2010-01-01T01:13:35Z</time>
      </trkpt>
      <trkpt lat="31.81728000" lon="34.99421000">
        <ele>265.00000</ele>
        <time>2010-01-01T01:13:44Z</time>
      </trkpt>
      <trkpt lat="31.81721000" lon="34.99412000">
        <ele>266.00000</ele>
        <time>2010-01-01T01:13:48Z</time>
      </trkpt>
      <trkpt lat="31.81709000" lon="34.99386000">
        <ele>268.00000</ele>
        <time>2010-01-01T01:13:58Z</time>
      </trkpt>
      <trkpt lat="31.81701000" lon="34.99358000">
        <ele>270.00000</ele>
        <time>2010-01-01T01:14:08Z</time>
      </trkpt>
      <trkpt lat="31.81691000" lon="34.99313000">
        <ele>273.00000</ele>
        <time>2010-01-01T01:14:24Z</time>
      </trkpt>
      <trkpt lat="31.81690000" lon="34.99311000">
        <ele>273.00000</ele>
        <time>2010-01-01T01:14:25Z</time>
      </trkpt>
      <trkpt lat="31.81690600" lon="34.99311800">
        <ele>273.00000</ele>
        <time>2010-01-01T01:14:25Z</time>
      </trkpt>
      <trkpt lat="31.81681480" lon="34.99294630">
        <ele>274.00000</ele>
        <time>2010-01-01T01:14:32Z</time>
      </trkpt>
      <trkpt lat="31.81674640" lon="34.99287660">
        <ele>273.00000</ele>
        <time>2010-01-01T01:14:36Z</time>
      </trkpt>
      <trkpt lat="31.81661880" lon="34.99287120">
        <ele>272.00000</ele>
        <time>2010-01-01T01:14:41Z</time>
      </trkpt>
      <trkpt lat="31.81654580" lon="34.99291950">
        <ele>271.00000</ele>
        <time>2010-01-01T01:14:44Z</time>
      </trkpt>
      <trkpt lat="31.81642000" lon="34.99304000">
        <ele>269.00000</ele>
        <time>2010-01-01T01:14:51Z</time>
      </trkpt>
      <trkpt lat="31.81631000" lon="34.99317000">
        <ele>267.00000</ele>
        <time>2010-01-01T01:14:57Z</time>
      </trkpt>
      <trkpt lat="31.81621000" lon="34.99335000">
        <ele>265.00000</ele>
        <time>2010-01-01T01:15:04Z</time>
      </trkpt>
      <trkpt lat="31.81608000" lon="34.99342000">
        <ele>264.00000</ele>
        <time>2010-01-01T01:15:10Z</time>
      </trkpt>
      <trkpt lat="31.81602000" lon="34.99343000">
        <ele>264.00000</ele>
        <time>2010-01-01T01:15:12Z</time>
      </trkpt>
      <trkpt lat="31.81593000" lon="34.99337000">
        <ele>265.00000</ele>
        <time>2010-01-01T01:15:16Z</time>
      </trkpt>
      <trkpt lat="31.81583000" lon="34.99324000">
        <ele>268.00000</ele>
        <time>2010-01-01T01:15:22Z</time>
      </trkpt>
      <trkpt lat="31.81573000" lon="34.99315000">
        <ele>270.00000</ele>
        <time>2010-01-01T01:15:27Z</time>
      </trkpt>
      <trkpt lat="31.81545000" lon="34.99307000">
        <ele>271.00000</ele>
        <time>2010-01-01T01:15:39Z</time>
      </trkpt>
      <trkpt lat="31.81546000" lon="34.99307000">
        <ele>271.00000</ele>
        <time>2010-01-01T01:15:39Z</time>
      </trkpt>
      <trkpt lat="31.81537000" lon="34.99305000">
        <ele>271.00000</ele>
        <time>2010-01-01T01:15:43Z</time>
      </trkpt>
      <trkpt lat="31.81490000" lon="34.99282000">
        <ele>271.00000</ele>
        <time>2010-01-01T01:16:03Z</time>
      </trkpt>
      <trkpt lat="31.81482000" lon="34.99285000">
        <ele>270.00000</ele>
        <time>2010-01-01T01:16:07Z</time>
      </trkpt>
      <trkpt lat="31.81475000" lon="34.99293000">
        <ele>267.00000</ele>
        <time>2010-01-01T01:16:11Z</time>
      </trkpt>
      <trkpt lat="31.81455000" lon="34.99345000">
        <ele>262.00000</ele>
        <time>2010-01-01T01:16:30Z</time>
      </trkpt>
      <trkpt lat="31.81445000" lon="34.99361000">
        <ele>261.00000</ele>
        <time>2010-01-01T01:16:37Z</time>
      </trkpt>
      <trkpt lat="31.81381000" lon="34.99383000">
        <ele>266.00000</ele>
        <time>2010-01-01T01:17:04Z</time>
      </trkpt>
      <trkpt lat="31.81338000" lon="34.99406000">
        <ele>262.00000</ele>
        <time>2010-01-01T01:17:22Z</time>
      </trkpt>
      <trkpt lat="31.81272000" lon="34.99429000">
        <ele>269.00000</ele>
        <time>2010-01-01T01:17:50Z</time>
      </trkpt>
      <trkpt lat="31.81256000" lon="34.99438000">
        <ele>268.00000</ele>
        <time>2010-01-01T01:17:57Z</time>
      </trkpt>
      <trkpt lat="31.81159000" lon="34.99458000">
        <ele>269.00000</ele>
        <time>2010-01-01T01:18:36Z</time>
      </trkpt>
      <trkpt lat="31.81157000" lon="34.99458000">
        <ele>270.00000</ele>
        <time>2010-01-01T01:18:37Z</time>
      </trkpt>
      <trkpt lat="31.81157250" lon="34.99459860">
        <ele>269.00000</ele>
        <time>2010-01-01T01:18:38Z</time>
      </trkpt>
      <trkpt lat="31.81107110" lon="34.99456640">
        <ele>273.00000</ele>
        <time>2010-01-01T01:18:58Z</time>
      </trkpt>
      <trkpt lat="31.81092520" lon="34.99461470">
        <ele>273.00000</ele>
        <time>2010-01-01T01:19:04Z</time>
      </trkpt>
      <trkpt lat="31.81072010" lon="34.99473810">
        <ele>274.00000</ele>
        <time>2010-01-01T01:19:13Z</time>
      </trkpt>
      <trkpt lat="31.81057420" lon="34.99490970">
        <ele>273.00000</ele>
        <time>2010-01-01T01:19:22Z</time>
      </trkpt>
      <trkpt lat="31.81022770" lon="34.99502240">
        <ele>279.00000</ele>
        <time>2010-01-01T01:19:36Z</time>
      </trkpt>
      <trkpt lat="31.80889200" lon="34.99502240">
        <ele>291.00000</ele>
        <time>2010-01-01T01:20:29Z</time>
      </trkpt>
      <trkpt lat="31.80876440" lon="34.99495800">
        <ele>290.00000</ele>
        <time>2010-01-01T01:20:35Z</time>
      </trkpt>
      <trkpt lat="31.80816260" lon="34.99446980">
        <ele>294.00000</ele>
        <time>2010-01-01T01:21:04Z</time>
      </trkpt>
      <trkpt lat="31.80802590" lon="34.99444300">
        <ele>294.00000</ele>
        <time>2010-01-01T01:21:10Z</time>
      </trkpt>
      <trkpt lat="31.80792560" lon="34.99446980">
        <ele>293.00000</ele>
        <time>2010-01-01T01:21:14Z</time>
      </trkpt>
      <trkpt lat="31.80782980" lon="34.99450740">
        <ele>292.00000</ele>
        <time>2010-01-01T01:21:18Z</time>
      </trkpt>
      <trkpt lat="31.80772500" lon="34.99458250">
        <ele>292.00000</ele>
        <time>2010-01-01T01:21:23Z</time>
      </trkpt>
      <trkpt lat="31.80757000" lon="34.99475000">
        <ele>293.00000</ele>
        <time>2010-01-01T01:21:31Z</time>
      </trkpt>
      <trkpt lat="31.80746000" lon="34.99489000">
        <ele>293.00000</ele>
        <time>2010-01-01T01:21:38Z</time>
      </trkpt>
      <trkpt lat="31.80720000" lon="34.99528000">
        <ele>298.00000</ele>
        <time>2010-01-01T01:21:55Z</time>
      </trkpt>
      <trkpt lat="31.80657000" lon="34.99580000">
        <ele>302.00000</ele>
        <time>2010-01-01T01:22:25Z</time>
      </trkpt>
      <trkpt lat="31.80606000" lon="34.99611000">
        <ele>306.00000</ele>
        <time>2010-01-01T01:22:48Z</time>
      </trkpt>
      <trkpt lat="31.80597000" lon="34.99616000">
        <ele>307.00000</ele>
        <time>2010-01-01T01:22:52Z</time>
      </trkpt>
      <trkpt lat="31.80592000" lon="34.99618000">
        <ele>308.00000</ele>
        <time>2010-01-01T01:22:55Z</time>
      </trkpt>
      <trkpt lat="31.80580000" lon="34.99621000">
        <ele>309.00000</ele>
        <time>2010-01-01T01:22:59Z</time>
      </trkpt>
      <trkpt lat="31.80549000" lon="34.99620000">
        <ele>309.00000</ele>
        <time>2010-01-01T01:23:12Z</time>
      </trkpt>
      <trkpt lat="31.80527000" lon="34.99618000">
        <ele>310.00000</ele>
        <time>2010-01-01T01:23:21Z</time>
      </trkpt>
      <trkpt lat="31.80515000" lon="34.99621000">
        <ele>309.00000</ele>
        <time>2010-01-01T01:23:26Z</time>
      </trkpt>
      <trkpt lat="31.80497000" lon="34.99629000">
        <ele>309.00000</ele>
        <time>2010-01-01T01:23:33Z</time>
      </trkpt>
      <trkpt lat="31.80474000" lon="34.99636000">
        <ele>311.00000</ele>
        <time>2010-01-01T01:23:43Z</time>
      </trkpt>
      <trkpt lat="31.80458000" lon="34.99637000">
        <ele>313.00000</ele>
        <time>2010-01-01T01:23:49Z</time>
      </trkpt>
      <trkpt lat="31.80413000" lon="34.99637000">
        <ele>319.00000</ele>
        <time>2010-01-01T01:24:07Z</time>
      </trkpt>
      <trkpt lat="31.80398000" lon="34.99640000">
        <ele>320.00000</ele>
        <time>2010-01-01T01:24:13Z</time>
      </trkpt>
      <trkpt lat="31.80366000" lon="34.99652000">
        <ele>320.00000</ele>
        <time>2010-01-01T01:24:27Z</time>
      </trkpt>
      <trkpt lat="31.80334000" lon="34.99661000">
        <ele>318.00000</ele>
        <time>2010-01-01T01:24:40Z</time>
      </trkpt>
      <trkpt lat="31.80325000" lon="34.99662000">
        <ele>318.00000</ele>
        <time>2010-01-01T01:24:44Z</time>
      </trkpt>
      <trkpt lat="31.80317000" lon="34.99663000">
        <ele>318.00000</ele>
        <time>2010-01-01T01:24:47Z</time>
      </trkpt>
      <trkpt lat="31.80284000" lon="34.99659000">
        <ele>319.00000</ele>
        <time>2010-01-01T01:25:00Z</time>
      </trkpt>
      <trkpt lat="31.80268000" lon="34.99660000">
        <ele>320.00000</ele>
        <time>2010-01-01T01:25:06Z</time>
      </trkpt>
      <trkpt lat="31.80248000" lon="34.99666000">
        <ele>322.00000</ele>
        <time>2010-01-01T01:25:15Z</time>
      </trkpt>
      <trkpt lat="31.80224000" lon="34.99676000">
        <ele>326.00000</ele>
        <time>2010-01-01T01:25:25Z</time>
      </trkpt>
      <trkpt lat="31.80178000" lon="34.99704000">
        <ele>331.00000</ele>
        <time>2010-01-01T01:25:46Z</time>
      </trkpt>
      <trkpt lat="31.80175000" lon="34.99706000">
        <ele>331.00000</ele>
        <time>2010-01-01T01:25:47Z</time>
      </trkpt>
      <trkpt lat="31.80161000" lon="34.99717000">
        <ele>332.00000</ele>
        <time>2010-01-01T01:25:54Z</time>
      </trkpt>
      <trkpt lat="31.80138000" lon="34.99738000">
        <ele>333.00000</ele>
        <time>2010-01-01T01:26:05Z</time>
      </trkpt>
      <trkpt lat="31.80126000" lon="34.99747000">
        <ele>333.00000</ele>
        <time>2010-01-01T01:26:11Z</time>
      </trkpt>
      <trkpt lat="31.80041000" lon="34.99794000">
        <ele>339.00000</ele>
        <time>2010-01-01T01:26:49Z</time>
      </trkpt>
      <trkpt lat="31.80020000" lon="34.99802000">
        <ele>340.00000</ele>
        <time>2010-01-01T01:26:58Z</time>
      </trkpt>
      <trkpt lat="31.79966000" lon="34.99815000">
        <ele>342.00000</ele>
        <time>2010-01-01T01:27:20Z</time>
      </trkpt>
      <trkpt lat="31.79889000" lon="34.99830000">
        <ele>345.00000</ele>
        <time>2010-01-01T01:27:51Z</time>
      </trkpt>
      <trkpt lat="31.79856000" lon="34.99843000">
        <ele>346.00000</ele>
        <time>2010-01-01T01:28:05Z</time>
      </trkpt>
      <trkpt lat="31.79797000" lon="34.99874000">
        <ele>351.00000</ele>
        <time>2010-01-01T01:28:31Z</time>
      </trkpt>
      <trkpt lat="31.79770000" lon="34.99882000">
        <ele>352.00000</ele>
        <time>2010-01-01T01:28:42Z</time>
      </trkpt>
      <trkpt lat="31.79735000" lon="34.99896000">
        <ele>353.00000</ele>
        <time>2010-01-01T01:28:57Z</time>
      </trkpt>
      <trkpt lat="31.79695000" lon="34.99912000">
        <ele>354.00000</ele>
        <time>2010-01-01T01:29:14Z</time>
      </trkpt>
      <trkpt lat="31.79682000" lon="34.99916000">
        <ele>354.00000</ele>
        <time>2010-01-01T01:29:19Z</time>
      </trkpt>
      <trkpt lat="31.79655000" lon="34.99914000">
        <ele>357.00000</ele>
        <time>2010-01-01T01:29:30Z</time>
      </trkpt>
      <trkpt lat="31.79646000" lon="34.99915000">
        <ele>359.00000</ele>
        <time>2010-01-01T01:29:33Z</time>
      </trkpt>
      <trkpt lat="31.79611000" lon="34.99932000">
        <ele>363.00000</ele>
        <time>2010-01-01T01:29:49Z</time>
      </trkpt>
      <trkpt lat="31.79571000" lon="34.99940000">
        <ele>364.00000</ele>
        <time>2010-01-01T01:30:05Z</time>
      </trkpt>
      <trkpt lat="31.79557000" lon="34.99946000">
        <ele>364.00000</ele>
        <time>2010-01-01T01:30:11Z</time>
      </trkpt>
      <trkpt lat="31.79530000" lon="34.99965000">
        <ele>365.00000</ele>
        <time>2010-01-01T01:30:23Z</time>
      </trkpt>
      <trkpt lat="31.79511000" lon="34.99976000">
        <ele>366.00000</ele>
        <time>2010-01-01T01:30:32Z</time>
      </trkpt>
      <trkpt lat="31.79455000" lon="35.00014000">
        <ele>372.00000</ele>
        <time>2010-01-01T01:30:58Z</time>
      </trkpt>
      <trkpt lat="31.79440000" lon="35.00021000">
        <ele>373.00000</ele>
        <time>2010-01-01T01:31:04Z</time>
      </trkpt>
      <trkpt lat="31.79440320" lon="35.00022050">
        <ele>373.00000</ele>
        <time>2010-01-01T01:31:04Z</time>
      </trkpt>
      <trkpt lat="31.79411140" lon="35.00031700">
        <ele>374.00000</ele>
        <time>2010-01-01T01:31:17Z</time>
      </trkpt>
      <trkpt lat="31.79407040" lon="35.00037070">
        <ele>374.00000</ele>
        <time>2010-01-01T01:31:19Z</time>
      </trkpt>
      <trkpt lat="31.79443970" lon="35.00056920">
        <ele>374.00000</ele>
        <time>2010-01-01T01:31:35Z</time>
      </trkpt>
      <trkpt lat="31.79495000" lon="35.00045000">
        <ele>372.00000</ele>
        <time>2010-01-01T01:31:56Z</time>
      </trkpt>
      <trkpt lat="31.79551000" lon="35.00042000">
        <ele>374.00000</ele>
        <time>2010-01-01T01:32:19Z</time>
      </trkpt>
      <trkpt lat="31.79583000" lon="35.00035000">
        <ele>373.00000</ele>
        <time>2010-01-01T01:32:32Z</time>
      </trkpt>
      <trkpt lat="31.79622000" lon="35.00049000">
        <ele>373.00000</ele>
        <time>2010-01-01T01:32:48Z</time>
      </trkpt>
      <trkpt lat="31.79623000" lon="35.00049000">
        <ele>373.00000</ele>
        <time>2010-01-01T01:32:48Z</time>
      </trkpt>
      <trkpt lat="31.79635000" lon="35.00053000">
        <ele>373.00000</ele>
        <time>2010-01-01T01:32:53Z</time>
      </trkpt>
      <trkpt lat="31.79665000" lon="35.00070000">
        <ele>372.00000</ele>
        <time>2010-01-01T01:33:07Z</time>
      </trkpt>
      <trkpt lat="31.79676000" lon="35.00073000">
        <ele>370.00000</ele>
        <time>2010-01-01T01:33:11Z</time>
      </trkpt>
      <trkpt lat="31.79713000" lon="35.00084000">
        <ele>366.00000</ele>
        <time>2010-01-01T01:33:26Z</time>
      </trkpt>
      <trkpt lat="31.79750000" lon="35.00080000">
        <ele>364.00000</ele>
        <time>2010-01-01T01:33:41Z</time>
      </trkpt>
      <trkpt lat="31.79774000" lon="35.00073000">
        <ele>367.00000</ele>
        <time>2010-01-01T01:33:51Z</time>
      </trkpt>
      <trkpt lat="31.79810000" lon="35.00073000">
        <ele>371.00000</ele>
        <time>2010-01-01T01:34:06Z</time>
      </trkpt>
      <trkpt lat="31.79816000" lon="35.00074000">
        <ele>372.00000</ele>
        <time>2010-01-01T01:34:08Z</time>
      </trkpt>
      <trkpt lat="31.79824000" lon="35.00077000">
        <ele>373.00000</ele>
        <time>2010-01-01T01:34:11Z</time>
      </trkpt>
      <trkpt lat="31.79854000" lon="35.00098000">
        <ele>374.00000</ele>
        <time>2010-01-01T01:34:25Z</time>
      </trkpt>
      <trkpt lat="31.79874000" lon="35.00109000">
        <ele>375.00000</ele>
        <time>2010-01-01T01:34:34Z</time>
      </trkpt>
      <trkpt lat="31.79895000" lon="35.00111000">
        <ele>376.00000</ele>
        <time>2010-01-01T01:34:43Z</time>
      </trkpt>
      <trkpt lat="31.79907000" lon="35.00107000">
        <ele>378.00000</ele>
        <time>2010-01-01T01:34:48Z</time>
      </trkpt>
      <trkpt lat="31.79936000" lon="35.00102000">
        <ele>378.00000</ele>
        <time>2010-01-01T01:34:59Z</time>
      </trkpt>
      <trkpt lat="31.79947000" lon="35.00096000">
        <ele>379.00000</ele>
        <time>2010-01-01T01:35:04Z</time>
      </trkpt>
      <trkpt lat="31.79965000" lon="35.00080000">
        <ele>379.00000</ele>
        <time>2010-01-01T01:35:13Z</time>
      </trkpt>
      <trkpt lat="31.79983000" lon="35.00060000">
        <ele>377.00000</ele>
        <time>2010-01-01T01:35:23Z</time>
      </trkpt>
      <trkpt lat="31.79992000" lon="35.00044000">
        <ele>377.00000</ele>
        <time>2010-01-01T01:35:30Z</time>
      </trkpt>
      <trkpt lat="31.79990000" lon="35.00028000">
        <ele>378.00000</ele>
        <time>2010-01-01T01:35:35Z</time>
      </trkpt>
      <trkpt lat="31.79987000" lon="35.00020000">
        <ele>378.00000</ele>
        <time>2010-01-01T01:35:38Z</time>
      </trkpt>
      <trkpt lat="31.79969000" lon="34.99994000">
        <ele>378.00000</ele>
        <time>2010-01-01T01:35:50Z</time>
      </trkpt>
      <trkpt lat="31.79969000" lon="34.99989000">
        <ele>378.00000</ele>
        <time>2010-01-01T01:35:51Z</time>
      </trkpt>
      <trkpt lat="31.79971000" lon="34.99986000">
        <ele>377.00000</ele>
        <time>2010-01-01T01:35:53Z</time>
      </trkpt>
      <trkpt lat="31.79982000" lon="34.99979000">
        <ele>376.00000</ele>
        <time>2010-01-01T01:35:58Z</time>
      </trkpt>
      <trkpt lat="31.80000000" lon="34.99979000">
        <ele>375.00000</ele>
        <time>2010-01-01T01:36:05Z</time>
      </trkpt>
      <trkpt lat="31.80019000" lon="34.99983000">
        <ele>375.00000</ele>
        <time>2010-01-01T01:36:13Z</time>
      </trkpt>
      <trkpt lat="31.80055000" lon="34.99983000">
        <ele>375.00000</ele>
        <time>2010-01-01T01:36:27Z</time>
      </trkpt>
      <trkpt lat="31.80072000" lon="34.99980000">
        <ele>373.00000</ele>
        <time>2010-01-01T01:36:34Z</time>
      </trkpt>
      <trkpt lat="31.80079000" lon="34.99977000">
        <ele>373.00000</ele>
        <time>2010-01-01T01:36:37Z</time>
      </trkpt>
      <trkpt lat="31.80085000" lon="34.99969000">
        <ele>372.00000</ele>
        <time>2010-01-01T01:36:40Z</time>
      </trkpt>
      <trkpt lat="31.80086000" lon="34.99959000">
        <ele>371.00000</ele>
        <time>2010-01-01T01:36:44Z</time>
      </trkpt>
      <trkpt lat="31.80085000" lon="34.99940000">
        <ele>369.00000</ele>
        <time>2010-01-01T01:36:50Z</time>
      </trkpt>
      <trkpt lat="31.80086000" lon="34.99935000">
        <ele>368.00000</ele>
        <time>2010-01-01T01:36:52Z</time>
      </trkpt>
      <trkpt lat="31.80087000" lon="34.99930000">
        <ele>367.00000</ele>
        <time>2010-01-01T01:36:54Z</time>
      </trkpt>
      <trkpt lat="31.80096000" lon="34.99916000">
        <ele>364.00000</ele>
        <time>2010-01-01T01:37:00Z</time>
      </trkpt>
      <trkpt lat="31.80144000" lon="34.99869000">
        <ele>357.00000</ele>
        <time>2010-01-01T01:37:25Z</time>
      </trkpt>
      <trkpt lat="31.80153000" lon="34.99865000">
        <ele>357.00000</ele>
        <time>2010-01-01T01:37:29Z</time>
      </trkpt>
      <trkpt lat="31.80162000" lon="34.99865000">
        <ele>357.00000</ele>
        <time>2010-01-01T01:37:32Z</time>
      </trkpt>
      <trkpt lat="31.80170000" lon="34.99869000">
        <ele>358.00000</ele>
        <time>2010-01-01T01:37:36Z</time>
      </trkpt>
      <trkpt lat="31.80185000" lon="34.99879000">
        <ele>359.00000</ele>
        <time>2010-01-01T01:37:43Z</time>
      </trkpt>
      <trkpt lat="31.80207000" lon="34.99888000">
        <ele>360.00000</ele>
        <time>2010-01-01T01:37:52Z</time>
      </trkpt>
      <trkpt lat="31.80218000" lon="34.99900000">
        <ele>360.00000</ele>
        <time>2010-01-01T01:37:58Z</time>
      </trkpt>
      <trkpt lat="31.80224000" lon="34.99913000">
        <ele>360.00000</ele>
        <time>2010-01-01T01:38:03Z</time>
      </trkpt>
      <trkpt lat="31.80227000" lon="34.99918000">
        <ele>360.00000</ele>
        <time>2010-01-01T01:38:05Z</time>
      </trkpt>
      <trkpt lat="31.80259000" lon="34.99942000">
        <ele>359.00000</ele>
        <time>2010-01-01T01:38:20Z</time>
      </trkpt>
      <trkpt lat="31.80264000" lon="34.99944000">
        <ele>359.00000</ele>
        <time>2010-01-01T01:38:22Z</time>
      </trkpt>
      <trkpt lat="31.80274000" lon="34.99944000">
        <ele>359.00000</ele>
        <time>2010-01-01T01:38:26Z</time>
      </trkpt>
      <trkpt lat="31.80281000" lon="34.99941000">
        <ele>358.00000</ele>
        <time>2010-01-01T01:38:29Z</time>
      </trkpt>
      <trkpt lat="31.80288000" lon="34.99938000">
        <ele>358.00000</ele>
        <time>2010-01-01T01:38:32Z</time>
      </trkpt>
      <trkpt lat="31.80340000" lon="34.99886000">
        <ele>351.00000</ele>
        <time>2010-01-01T01:39:00Z</time>
      </trkpt>
      <trkpt lat="31.80380000" lon="34.99857000">
        <ele>355.00000</ele>
        <time>2010-01-01T01:39:19Z</time>
      </trkpt>
      <trkpt lat="31.80400000" lon="34.99840000">
        <ele>355.00000</ele>
        <time>2010-01-01T01:39:28Z</time>
      </trkpt>
      <trkpt lat="31.80420000" lon="34.99818000">
        <ele>353.00000</ele>
        <time>2010-01-01T01:39:39Z</time>
      </trkpt>
      <trkpt lat="31.80437000" lon="34.99803000">
        <ele>353.00000</ele>
        <time>2010-01-01T01:39:48Z</time>
      </trkpt>
      <trkpt lat="31.80458000" lon="34.99792000">
        <ele>353.00000</ele>
        <time>2010-01-01T01:39:57Z</time>
      </trkpt>
      <trkpt lat="31.80478000" lon="34.99788000">
        <ele>351.00000</ele>
        <time>2010-01-01T01:40:05Z</time>
      </trkpt>
      <trkpt lat="31.80495000" lon="34.99787000">
        <ele>347.00000</ele>
        <time>2010-01-01T01:40:12Z</time>
      </trkpt>
      <trkpt lat="31.80507000" lon="34.99790000">
        <ele>345.00000</ele>
        <time>2010-01-01T01:40:17Z</time>
      </trkpt>
      <trkpt lat="31.80508000" lon="34.99790000">
        <ele>345.00000</ele>
        <time>2010-01-01T01:40:17Z</time>
      </trkpt>
      <trkpt lat="31.80515000" lon="34.99792000">
        <ele>344.00000</ele>
        <time>2010-01-01T01:40:20Z</time>
      </trkpt>
      <trkpt lat="31.80537000" lon="34.99805000">
        <ele>341.00000</ele>
        <time>2010-01-01T01:40:30Z</time>
      </trkpt>
      <trkpt lat="31.80546000" lon="34.99815000">
        <ele>341.00000</ele>
        <time>2010-01-01T01:40:35Z</time>
      </trkpt>
      <trkpt lat="31.80557000" lon="34.99832000">
        <ele>341.00000</ele>
        <time>2010-01-01T01:40:42Z</time>
      </trkpt>
      <trkpt lat="31.80567000" lon="34.99852000">
        <ele>342.00000</ele>
        <time>2010-01-01T01:40:50Z</time>
      </trkpt>
      <trkpt lat="31.80579000" lon="34.99883000">
        <ele>344.00000</ele>
        <time>2010-01-01T01:41:02Z</time>
      </trkpt>
      <trkpt lat="31.80583000" lon="34.99890000">
        <ele>344.00000</ele>
        <time>2010-01-01T01:41:05Z</time>
      </trkpt>
      <trkpt lat="31.80591000" lon="34.99898000">
        <ele>344.00000</ele>
        <time>2010-01-01T01:41:09Z</time>
      </trkpt>
      <trkpt lat="31.80601000" lon="34.99903000">
        <ele>344.00000</ele>
        <time>2010-01-01T01:41:13Z</time>
      </trkpt>
      <trkpt lat="31.80625000" lon="34.99911000">
        <ele>344.00000</ele>
        <time>2010-01-01T01:41:23Z</time>
      </trkpt>
      <trkpt lat="31.80666000" lon="34.99927000">
        <ele>346.00000</ele>
        <time>2010-01-01T01:41:40Z</time>
      </trkpt>
      <trkpt lat="31.80696000" lon="34.99925000">
        <ele>348.00000</ele>
        <time>2010-01-01T01:41:52Z</time>
      </trkpt>
      <trkpt lat="31.80715000" lon="34.99913000">
        <ele>348.00000</ele>
        <time>2010-01-01T01:42:01Z</time>
      </trkpt>
      <trkpt lat="31.80729000" lon="34.99896000">
        <ele>348.00000</ele>
        <time>2010-01-01T01:42:09Z</time>
      </trkpt>
      <trkpt lat="31.80732000" lon="34.99886000">
        <ele>348.00000</ele>
        <time>2010-01-01T01:42:13Z</time>
      </trkpt>
      <trkpt lat="31.80733000" lon="34.99836000">
        <ele>346.00000</ele>
        <time>2010-01-01T01:42:30Z</time>
      </trkpt>
      <trkpt lat="31.80733000" lon="34.99785000">
        <ele>343.00000</ele>
        <time>2010-01-01T01:42:47Z</time>
      </trkpt>
      <trkpt lat="31.80748000" lon="34.99746000">
        <ele>342.00000</ele>
        <time>2010-01-01T01:43:02Z</time>
      </trkpt>
      <trkpt lat="31.80765000" lon="34.99721000">
        <ele>342.00000</ele>
        <time>2010-01-01T01:43:13Z</time>
      </trkpt>
      <trkpt lat="31.80789000" lon="34.99697000">
        <ele>341.00000</ele>
        <time>2010-01-01T01:43:25Z</time>
      </trkpt>
      <trkpt lat="31.80831000" lon="34.99673000">
        <ele>337.00000</ele>
        <time>2010-01-01T01:43:44Z</time>
      </trkpt>
      <trkpt lat="31.80843000" lon="34.99669000">
        <ele>335.00000</ele>
        <time>2010-01-01T01:43:49Z</time>
      </trkpt>
      <trkpt lat="31.80870000" lon="34.99669000">
        <ele>333.00000</ele>
        <time>2010-01-01T01:44:00Z</time>
      </trkpt>
      <trkpt lat="31.80879000" lon="34.99672000">
        <ele>332.00000</ele>
        <time>2010-01-01T01:44:03Z</time>
      </trkpt>
      <trkpt lat="31.80893000" lon="34.99681000">
        <ele>331.00000</ele>
        <time>2010-01-01T01:44:10Z</time>
      </trkpt>
      <trkpt lat="31.80901000" lon="34.99698000">
        <ele>332.00000</ele>
        <time>2010-01-01T01:44:16Z</time>
      </trkpt>
      <trkpt lat="31.80904000" lon="34.99724000">
        <ele>332.00000</ele>
        <time>2010-01-01T01:44:25Z</time>
      </trkpt>
      <trkpt lat="31.80895000" lon="34.99780000">
        <ele>334.00000</ele>
        <time>2010-01-01T01:44:45Z</time>
      </trkpt>
      <trkpt lat="31.80893000" lon="34.99809000">
        <ele>336.00000</ele>
        <time>2010-01-01T01:44:55Z</time>
      </trkpt>
      <trkpt lat="31.80892000" lon="34.99815000">
        <ele>336.00000</ele>
        <time>2010-01-01T01:44:57Z</time>
      </trkpt>
      <trkpt lat="31.80892000" lon="34.99841000">
        <ele>336.00000</ele>
        <time>2010-01-01T01:45:06Z</time>
      </trkpt>
      <trkpt lat="31.80896000" lon="34.99850000">
        <ele>335.00000</ele>
        <time>2010-01-01T01:45:09Z</time>
      </trkpt>
      <trkpt lat="31.80900000" lon="34.99857000">
        <ele>335.00000</ele>
        <time>2010-01-01T01:45:12Z</time>
      </trkpt>
      <trkpt lat="31.80908000" lon="34.99862000">
        <ele>333.00000</ele>
        <time>2010-01-01T01:45:16Z</time>
      </trkpt>
      <trkpt lat="31.80955000" lon="34.99875000">
        <ele>326.00000</ele>
        <time>2010-01-01T01:45:35Z</time>
      </trkpt>
      <trkpt lat="31.80967000" lon="34.99875000">
        <ele>324.00000</ele>
        <time>2010-01-01T01:45:40Z</time>
      </trkpt>
      <trkpt lat="31.80992000" lon="34.99863000">
        <ele>320.00000</ele>
        <time>2010-01-01T01:45:50Z</time>
      </trkpt>
      <trkpt lat="31.81010000" lon="34.99858000">
        <ele>319.00000</ele>
        <time>2010-01-01T01:45:58Z</time>
      </trkpt>
      <trkpt lat="31.81037000" lon="34.99850000">
        <ele>317.00000</ele>
        <time>2010-01-01T01:46:09Z</time>
      </trkpt>
      <trkpt lat="31.81117000" lon="34.99832000">
        <ele>314.00000</ele>
        <time>2010-01-01T01:46:42Z</time>
      </trkpt>
      <trkpt lat="31.81131000" lon="34.99827000">
        <ele>313.00000</ele>
        <time>2010-01-01T01:46:47Z</time>
      </trkpt>
      <trkpt lat="31.81197000" lon="34.99795000">
        <ele>306.00000</ele>
        <time>2010-01-01T01:47:16Z</time>
      </trkpt>
      <trkpt lat="31.81208000" lon="34.99787000">
        <ele>306.00000</ele>
        <time>2010-01-01T01:47:21Z</time>
      </trkpt>
      <trkpt lat="31.81222000" lon="34.99779000">
        <ele>305.00000</ele>
        <time>2010-01-01T01:47:27Z</time>
      </trkpt>
      <trkpt lat="31.81237000" lon="34.99775000">
        <ele>302.00000</ele>
        <time>2010-01-01T01:47:34Z</time>
      </trkpt>
      <trkpt lat="31.81219000" lon="34.99799000">
        <ele>302.00000</ele>
        <time>2010-01-01T01:47:44Z</time>
      </trkpt>
      <trkpt lat="31.81189000" lon="34.99841000">
        <ele>298.00000</ele>
        <time>2010-01-01T01:48:03Z</time>
      </trkpt>
      <trkpt lat="31.81178000" lon="34.99851000">
        <ele>299.00000</ele>
        <time>2010-01-01T01:48:09Z</time>
      </trkpt>
      <trkpt lat="31.81134000" lon="34.99895000">
        <ele>297.00000</ele>
        <time>2010-01-01T01:48:32Z</time>
      </trkpt>
      <trkpt lat="31.81096000" lon="34.99906000">
        <ele>300.00000</ele>
        <time>2010-01-01T01:48:47Z</time>
      </trkpt>
      <trkpt lat="31.81080000" lon="34.99918000">
        <ele>300.00000</ele>
        <time>2010-01-01T01:48:55Z</time>
      </trkpt>
      <trkpt lat="31.81065000" lon="34.99933000">
        <ele>301.00000</ele>
        <time>2010-01-01T01:49:03Z</time>
      </trkpt>
      <trkpt lat="31.81035000" lon="34.99985000">
        <ele>300.00000</ele>
        <time>2010-01-01T01:49:24Z</time>
      </trkpt>
      <trkpt lat="31.80997000" lon="35.00089000">
        <ele>295.00000</ele>
        <time>2010-01-01T01:50:03Z</time>
      </trkpt>
      <trkpt lat="31.80978000" lon="35.00134000">
        <ele>296.00000</ele>
        <time>2010-01-01T01:50:20Z</time>
      </trkpt>
      <trkpt lat="31.80947000" lon="35.00158000">
        <ele>295.00000</ele>
        <time>2010-01-01T01:50:35Z</time>
      </trkpt>
      <trkpt lat="31.80890000" lon="35.00173000">
        <ele>297.00000</ele>
        <time>2010-01-01T01:50:58Z</time>
      </trkpt>
      <trkpt lat="31.80866000" lon="35.00196000">
        <ele>297.00000</ele>
        <time>2010-01-01T01:51:11Z</time>
      </trkpt>
      <trkpt lat="31.80839000" lon="35.00261000">
        <ele>289.00000</ele>
        <time>2010-01-01T01:51:35Z</time>
      </trkpt>
      <trkpt lat="31.80827000" lon="35.00274000">
        <ele>287.00000</ele>
        <time>2010-01-01T01:51:42Z</time>
      </trkpt>
      <trkpt lat="31.80815000" lon="35.00278000">
        <ele>285.00000</ele>
        <time>2010-01-01T01:51:47Z</time>
      </trkpt>
      <trkpt lat="31.80764000" lon="35.00290000">
        <ele>287.00000</ele>
        <time>2010-01-01T01:52:08Z</time>
      </trkpt>
      <trkpt lat="31.80758000" lon="35.00299000">
        <ele>286.00000</ele>
        <time>2010-01-01T01:52:11Z</time>
      </trkpt>
      <trkpt lat="31.80758000" lon="35.00326000">
        <ele>282.00000</ele>
        <time>2010-01-01T01:52:21Z</time>
      </trkpt>
      <trkpt lat="31.80760000" lon="35.00323000">
        <ele>282.00000</ele>
        <time>2010-01-01T01:52:22Z</time>
      </trkpt>
      <trkpt lat="31.80772000" lon="35.00314000">
        <ele>281.00000</ele>
        <time>2010-01-01T01:52:28Z</time>
      </trkpt>
      <trkpt lat="31.80782000" lon="35.00313000">
        <ele>279.00000</ele>
        <time>2010-01-01T01:52:32Z</time>
      </trkpt>
      <trkpt lat="31.80797000" lon="35.00315000">
        <ele>277.00000</ele>
        <time>2010-01-01T01:52:38Z</time>
      </trkpt>
      <trkpt lat="31.80820000" lon="35.00324000">
        <ele>273.00000</ele>
        <time>2010-01-01T01:52:47Z</time>
      </trkpt>
      <trkpt lat="31.80836000" lon="35.00334000">
        <ele>270.00000</ele>
        <time>2010-01-01T01:52:55Z</time>
      </trkpt>
      <trkpt lat="31.80857000" lon="35.00339000">
        <ele>268.00000</ele>
        <time>2010-01-01T01:53:03Z</time>
      </trkpt>
      <trkpt lat="31.80877000" lon="35.00331000">
        <ele>268.00000</ele>
        <time>2010-01-01T01:53:12Z</time>
      </trkpt>
      <trkpt lat="31.80895000" lon="35.00319000">
        <ele>270.00000</ele>
        <time>2010-01-01T01:53:20Z</time>
      </trkpt>
      <trkpt lat="31.80922000" lon="35.00306000">
        <ele>269.00000</ele>
        <time>2010-01-01T01:53:32Z</time>
      </trkpt>
      <trkpt lat="31.80994000" lon="35.00305000">
        <ele>265.00000</ele>
        <time>2010-01-01T01:54:00Z</time>
      </trkpt>
      <trkpt lat="31.81000000" lon="35.00302000">
        <ele>265.00000</ele>
        <time>2010-01-01T01:54:03Z</time>
      </trkpt>
      <trkpt lat="31.81018000" lon="35.00300000">
        <ele>263.00000</ele>
        <time>2010-01-01T01:54:10Z</time>
      </trkpt>
      <trkpt lat="31.81035000" lon="35.00294000">
        <ele>262.00000</ele>
        <time>2010-01-01T01:54:17Z</time>
      </trkpt>
      <trkpt lat="31.81046000" lon="35.00291000">
        <ele>262.00000</ele>
        <time>2010-01-01T01:54:22Z</time>
      </trkpt>
      <trkpt lat="31.81064000" lon="35.00280000">
        <ele>261.00000</ele>
        <time>2010-01-01T01:54:30Z</time>
      </trkpt>
      <trkpt lat="31.81066000" lon="35.00278000">
        <ele>261.00000</ele>
        <time>2010-01-01T01:54:31Z</time>
      </trkpt>
      <trkpt lat="31.81077000" lon="35.00264000">
        <ele>261.00000</ele>
        <time>2010-01-01T01:54:38Z</time>
      </trkpt>
      <trkpt lat="31.81087000" lon="35.00247000">
        <ele>260.00000</ele>
        <time>2010-01-01T01:54:45Z</time>
      </trkpt>
      <trkpt lat="31.81101000" lon="35.00208000">
        <ele>263.00000</ele>
        <time>2010-01-01T01:54:59Z</time>
      </trkpt>
      <trkpt lat="31.81135000" lon="35.00148000">
        <ele>263.00000</ele>
        <time>2010-01-01T01:55:24Z</time>
      </trkpt>
      <trkpt lat="31.81191000" lon="35.00066000">
        <ele>259.00000</ele>
        <time>2010-01-01T01:55:59Z</time>
      </trkpt>
      <trkpt lat="31.81197000" lon="35.00060000">
        <ele>258.00000</ele>
        <time>2010-01-01T01:56:02Z</time>
      </trkpt>
      <trkpt lat="31.81236000" lon="35.00040000">
        <ele>255.00000</ele>
        <time>2010-01-01T01:56:19Z</time>
      </trkpt>
      <trkpt lat="31.81246000" lon="35.00038000">
        <ele>255.00000</ele>
        <time>2010-01-01T01:56:24Z</time>
      </trkpt>
      <trkpt lat="31.81253000" lon="35.00035000">
        <ele>256.00000</ele>
        <time>2010-01-01T01:56:27Z</time>
      </trkpt>
      <trkpt lat="31.81267000" lon="35.00034000">
        <ele>257.00000</ele>
        <time>2010-01-01T01:56:32Z</time>
      </trkpt>
      <trkpt lat="31.81284000" lon="35.00030000">
        <ele>257.00000</ele>
        <time>2010-01-01T01:56:39Z</time>
      </trkpt>
      <trkpt lat="31.81294000" lon="35.00026000">
        <ele>257.00000</ele>
        <time>2010-01-01T01:56:43Z</time>
      </trkpt>
      <trkpt lat="31.81313000" lon="35.00013000">
        <ele>257.00000</ele>
        <time>2010-01-01T01:56:52Z</time>
      </trkpt>
      <trkpt lat="31.81342000" lon="34.99988000">
        <ele>257.00000</ele>
        <time>2010-01-01T01:57:06Z</time>
      </trkpt>
      <trkpt lat="31.81354000" lon="34.99980000">
        <ele>257.00000</ele>
        <time>2010-01-01T01:57:12Z</time>
      </trkpt>
      <trkpt lat="31.81367000" lon="34.99974000">
        <ele>256.00000</ele>
        <time>2010-01-01T01:57:18Z</time>
      </trkpt>
      <trkpt lat="31.81394000" lon="34.99961000">
        <ele>252.00000</ele>
        <time>2010-01-01T01:57:29Z</time>
      </trkpt>
      <trkpt lat="31.81405000" lon="34.99952000">
        <ele>249.00000</ele>
        <time>2010-01-01T01:57:35Z</time>
      </trkpt>
      <trkpt lat="31.81433000" lon="34.99907000">
        <ele>249.00000</ele>
        <time>2010-01-01T01:57:54Z</time>
      </trkpt>
      <trkpt lat="31.81459000" lon="34.99877000">
        <ele>250.00000</ele>
        <time>2010-01-01T01:58:08Z</time>
      </trkpt>
      <trkpt lat="31.81478000" lon="34.99842000">
        <ele>252.00000</ele>
        <time>2010-01-01T01:58:22Z</time>
      </trkpt>
      <trkpt lat="31.81502000" lon="34.99816000">
        <ele>251.00000</ele>
        <time>2010-01-01T01:58:35Z</time>
      </trkpt>
      <trkpt lat="31.81520000" lon="34.99805000">
        <ele>249.00000</ele>
        <time>2010-01-01T01:58:44Z</time>
      </trkpt>
      <trkpt lat="31.81510000" lon="34.99848000">
        <ele>244.00000</ele>
        <time>2010-01-01T01:58:59Z</time>
      </trkpt>
      <trkpt lat="31.81496000" lon="34.99875000">
        <ele>244.00000</ele>
        <time>2010-01-01T01:59:09Z</time>
      </trkpt>
      <trkpt lat="31.81483000" lon="34.99974000">
        <ele>245.00000</ele>
        <time>2010-01-01T01:59:44Z</time>
      </trkpt>
      <trkpt lat="31.81488000" lon="34.99992000">
        <ele>247.00000</ele>
        <time>2010-01-01T01:59:50Z</time>
      </trkpt>
      <trkpt lat="31.81496000" lon="35.00005000">
        <ele>250.00000</ele>
        <time>2010-01-01T01:59:55Z</time>
      </trkpt>
      <trkpt lat="31.81501000" lon="35.00013000">
        <ele>251.00000</ele>
        <time>2010-01-01T01:59:59Z</time>
      </trkpt>
      <trkpt lat="31.81513000" lon="35.00031000">
        <ele>254.00000</ele>
        <time>2010-01-01T02:00:07Z</time>
      </trkpt>
      <trkpt lat="31.81514640" lon="35.00030630">
        <ele>254.00000</ele>
        <time>2010-01-01T02:00:07Z</time>
      </trkpt>
      <trkpt lat="31.81532880" lon="35.00048870">
        <ele>258.00000</ele>
        <time>2010-01-01T02:00:17Z</time>
      </trkpt>
      <trkpt lat="31.81548370" lon="35.00054240">
        <ele>259.00000</ele>
        <time>2010-01-01T02:00:23Z</time>
      </trkpt>
      <trkpt lat="31.81576640" lon="35.00054240">
        <ele>260.00000</ele>
        <time>2010-01-01T02:00:35Z</time>
      </trkpt>
      <trkpt lat="31.81577550" lon="35.00070330">
        <ele>263.00000</ele>
        <time>2010-01-01T02:00:40Z</time>
      </trkpt>
      <trkpt lat="31.81530000" lon="35.00069000">
        <ele>261.00000</ele>
        <time>2010-01-01T02:00:59Z</time>
      </trkpt>
      <trkpt lat="31.81512000" lon="35.00069000">
        <ele>259.00000</ele>
        <time>2010-01-01T02:01:06Z</time>
      </trkpt>
      <trkpt lat="31.81496000" lon="35.00077000">
        <ele>258.00000</ele>
        <time>2010-01-01T02:01:13Z</time>
      </trkpt>
      <trkpt lat="31.81456000" lon="35.00113000">
        <ele>260.00000</ele>
        <time>2010-01-01T02:01:33Z</time>
      </trkpt>
      <trkpt lat="31.81403000" lon="35.00166000">
        <ele>265.00000</ele>
        <time>2010-01-01T02:02:01Z</time>
      </trkpt>
      <trkpt lat="31.81385000" lon="35.00180000">
        <ele>266.00000</ele>
        <time>2010-01-01T02:02:10Z</time>
      </trkpt>
      <trkpt lat="31.81341000" lon="35.00209000">
        <ele>265.00000</ele>
        <time>2010-01-01T02:02:30Z</time>
      </trkpt>
      <trkpt lat="31.81333000" lon="35.00216000">
        <ele>266.00000</ele>
        <time>2010-01-01T02:02:34Z</time>
      </trkpt>
      <trkpt lat="31.81321000" lon="35.00233000">
        <ele>266.00000</ele>
        <time>2010-01-01T02:02:42Z</time>
      </trkpt>
      <trkpt lat="31.81313000" lon="35.00252000">
        <ele>267.00000</ele>
        <time>2010-01-01T02:02:49Z</time>
      </trkpt>
      <trkpt lat="31.81306000" lon="35.00285000">
        <ele>268.00000</ele>
        <time>2010-01-01T02:03:00Z</time>
      </trkpt>
      <trkpt lat="31.81305000" lon="35.00310000">
        <ele>269.00000</ele>
        <time>2010-01-01T02:03:09Z</time>
      </trkpt>
      <trkpt lat="31.81305000" lon="35.00332000">
        <ele>269.00000</ele>
        <time>2010-01-01T02:03:16Z</time>
      </trkpt>
      <trkpt lat="31.81306000" lon="35.00344000">
        <ele>270.00000</ele>
        <time>2010-01-01T02:03:20Z</time>
      </trkpt>
      <trkpt lat="31.81317000" lon="35.00371000">
        <ele>273.00000</ele>
        <time>2010-01-01T02:03:31Z</time>
      </trkpt>
      <trkpt lat="31.81321000" lon="35.00383000">
        <ele>275.00000</ele>
        <time>2010-01-01T02:03:35Z</time>
      </trkpt>
      <trkpt lat="31.81321000" lon="35.00387000">
        <ele>275.00000</ele>
        <time>2010-01-01T02:03:36Z</time>
      </trkpt>
      <trkpt lat="31.81320450" lon="35.00387900">
        <ele>276.00000</ele>
        <time>2010-01-01T02:03:37Z</time>
      </trkpt>
      <trkpt lat="31.81329570" lon="35.00412580">
        <ele>280.00000</ele>
        <time>2010-01-01T02:03:46Z</time>
      </trkpt>
      <trkpt lat="31.81365120" lon="35.00407210">
        <ele>282.00000</ele>
        <time>2010-01-01T02:04:00Z</time>
      </trkpt>
      <trkpt lat="31.81398000" lon="35.00408000">
        <ele>285.00000</ele>
        <time>2010-01-01T02:04:13Z</time>
      </trkpt>
      <trkpt lat="31.81419000" lon="35.00412000">
        <ele>289.00000</ele>
        <time>2010-01-01T02:04:22Z</time>
      </trkpt>
      <trkpt lat="31.81449000" lon="35.00423000">
        <ele>296.00000</ele>
        <time>2010-01-01T02:04:35Z</time>
      </trkpt>
      <trkpt lat="31.81464000" lon="35.00418000">
        <ele>297.00000</ele>
        <time>2010-01-01T02:04:41Z</time>
      </trkpt>
      <trkpt lat="31.81470000" lon="35.00404000">
        <ele>297.00000</ele>
        <time>2010-01-01T02:04:46Z</time>
      </trkpt>
      <trkpt lat="31.81481000" lon="35.00322000">
        <ele>292.00000</ele>
        <time>2010-01-01T02:05:14Z</time>
      </trkpt>
      <trkpt lat="31.81495000" lon="35.00307000">
        <ele>293.00000</ele>
        <time>2010-01-01T02:05:22Z</time>
      </trkpt>
      <trkpt lat="31.81538000" lon="35.00276000">
        <ele>295.00000</ele>
        <time>2010-01-01T02:05:42Z</time>
      </trkpt>
      <trkpt lat="31.81585000" lon="35.00263000">
        <ele>296.00000</ele>
        <time>2010-01-01T02:06:01Z</time>
      </trkpt>
      <trkpt lat="31.81601000" lon="35.00279000">
        <ele>298.00000</ele>
        <time>2010-01-01T02:06:10Z</time>
      </trkpt>
      <trkpt lat="31.81580000" lon="35.00333000">
        <ele>306.00000</ele>
        <time>2010-01-01T02:06:30Z</time>
      </trkpt>
      <trkpt lat="31.81532000" lon="35.00425000">
        <ele>310.00000</ele>
        <time>2010-01-01T02:07:07Z</time>
      </trkpt>
      <trkpt lat="31.81515000" lon="35.00464000">
        <ele>310.00000</ele>
        <time>2010-01-01T02:07:22Z</time>
      </trkpt>
      <trkpt lat="31.81518000" lon="35.00485000">
        <ele>312.00000</ele>
        <time>2010-01-01T02:07:29Z</time>
      </trkpt>
      <trkpt lat="31.81512000" lon="35.00503000">
        <ele>314.00000</ele>
        <time>2010-01-01T02:07:36Z</time>
      </trkpt>
      <trkpt lat="31.81478000" lon="35.00530000">
        <ele>311.00000</ele>
        <time>2010-01-01T02:07:52Z</time>
      </trkpt>
      <trkpt lat="31.81452000" lon="35.00545000">
        <ele>309.00000</ele>
        <time>2010-01-01T02:08:04Z</time>
      </trkpt>
      <trkpt lat="31.81439000" lon="35.00574000">
        <ele>309.00000</ele>
        <time>2010-01-01T02:08:15Z</time>
      </trkpt>
      <trkpt lat="31.81449000" lon="35.00662000">
        <ele>318.00000</ele>
        <time>2010-01-01T02:08:45Z</time>
      </trkpt>
      <trkpt lat="31.81482000" lon="35.00878000">
        <ele>339.00000</ele>
        <time>2010-01-01T02:10:00Z</time>
      </trkpt>
      <trkpt lat="31.81472000" lon="35.01006000">
        <ele>346.00000</ele>
        <time>2010-01-01T02:10:43Z</time>
      </trkpt>
      <trkpt lat="31.81454000" lon="35.01090000">
        <ele>349.00000</ele>
        <time>2010-01-01T02:11:13Z</time>
      </trkpt>
      <trkpt lat="31.81449000" lon="35.01183000">
        <ele>344.00000</ele>
        <time>2010-01-01T02:11:44Z</time>
      </trkpt>
      <trkpt lat="31.81442000" lon="35.01301000">
        <ele>341.00000</ele>
        <time>2010-01-01T02:12:25Z</time>
      </trkpt>
      <trkpt lat="31.81471000" lon="35.01250000">
        <ele>348.00000</ele>
        <time>2010-01-01T02:12:46Z</time>
      </trkpt>
      <trkpt lat="31.81485000" lon="35.01251000">
        <ele>351.00000</ele>
        <time>2010-01-01T02:12:51Z</time>
      </trkpt>
      <trkpt lat="31.81496000" lon="35.01255000">
        <ele>353.00000</ele>
        <time>2010-01-01T02:12:56Z</time>
      </trkpt>
      <trkpt lat="31.81525000" lon="35.01272000">
        <ele>356.00000</ele>
        <time>2010-01-01T02:13:09Z</time>
      </trkpt>
      <trkpt lat="31.81535000" lon="35.01271000">
        <ele>357.00000</ele>
        <time>2010-01-01T02:13:13Z</time>
      </trkpt>
      <trkpt lat="31.81542000" lon="35.01267000">
        <ele>358.00000</ele>
        <time>2010-01-01T02:13:16Z</time>
      </trkpt>
      <trkpt lat="31.81552000" lon="35.01256000">
        <ele>359.00000</ele>
        <time>2010-01-01T02:13:21Z</time>
      </trkpt>
      <trkpt lat="31.81559000" lon="35.01245000">
        <ele>359.00000</ele>
        <time>2010-01-01T02:13:26Z</time>
      </trkpt>
      <trkpt lat="31.81584000" lon="35.01215000">
        <ele>359.00000</ele>
        <time>2010-01-01T02:13:40Z</time>
      </trkpt>
      <trkpt lat="31.81622000" lon="35.01184000">
        <ele>357.00000</ele>
        <time>2010-01-01T02:13:59Z</time>
      </trkpt>
      <trkpt lat="31.81655000" lon="35.01139000">
        <ele>356.00000</ele>
        <time>2010-01-01T02:14:19Z</time>
      </trkpt>
      <trkpt lat="31.81664000" lon="35.01121000">
        <ele>355.00000</ele>
        <time>2010-01-01T02:14:26Z</time>
      </trkpt>
      <trkpt lat="31.81674000" lon="35.01067000">
        <ele>354.00000</ele>
        <time>2010-01-01T02:14:45Z</time>
      </trkpt>
      <trkpt lat="31.81676000" lon="35.01042000">
        <ele>352.00000</ele>
        <time>2010-01-01T02:14:53Z</time>
      </trkpt>
      <trkpt lat="31.81674000" lon="35.01000000">
        <ele>350.00000</ele>
        <time>2010-01-01T02:15:08Z</time>
      </trkpt>
      <trkpt lat="31.81674000" lon="35.00932000">
        <ele>345.00000</ele>
        <time>2010-01-01T02:15:31Z</time>
      </trkpt>
      <trkpt lat="31.81678000" lon="35.00894000">
        <ele>341.00000</ele>
        <time>2010-01-01T02:15:44Z</time>
      </trkpt>
      <trkpt lat="31.81683000" lon="35.00869000">
        <ele>340.00000</ele>
        <time>2010-01-01T02:15:53Z</time>
      </trkpt>
      <trkpt lat="31.81691000" lon="35.00846000">
        <ele>340.00000</ele>
        <time>2010-01-01T02:16:01Z</time>
      </trkpt>
      <trkpt lat="31.81705000" lon="35.00811000">
        <ele>343.00000</ele>
        <time>2010-01-01T02:16:14Z</time>
      </trkpt>
      <trkpt lat="31.81742000" lon="35.00743000">
        <ele>345.00000</ele>
        <time>2010-01-01T02:16:42Z</time>
      </trkpt>
      <trkpt lat="31.81749000" lon="35.00733000">
        <ele>346.00000</ele>
        <time>2010-01-01T02:16:46Z</time>
      </trkpt>
      <trkpt lat="31.81787000" lon="35.00683000">
        <ele>347.00000</ele>
        <time>2010-01-01T02:17:09Z</time>
      </trkpt>
      <trkpt lat="31.81804000" lon="35.00665000">
        <ele>349.00000</ele>
        <time>2010-01-01T02:17:18Z</time>
      </trkpt>
      <trkpt lat="31.81854000" lon="35.00612000">
        <ele>349.00000</ele>
        <time>2010-01-01T02:17:45Z</time>
      </trkpt>
      <trkpt lat="31.81874000" lon="35.00587000">
        <ele>349.00000</ele>
        <time>2010-01-01T02:17:57Z</time>
      </trkpt>
      <trkpt lat="31.81877000" lon="35.00580000">
        <ele>349.00000</ele>
        <time>2010-01-01T02:17:59Z</time>
      </trkpt>
      <trkpt lat="31.81879000" lon="35.00516000">
        <ele>340.00000</ele>
        <time>2010-01-01T02:18:21Z</time>
      </trkpt>
      <trkpt lat="31.81881000" lon="35.00486000">
        <ele>338.00000</ele>
        <time>2010-01-01T02:18:31Z</time>
      </trkpt>
      <trkpt lat="31.81918000" lon="35.00253000">
        <ele>312.00000</ele>
        <time>2010-01-01T02:19:52Z</time>
      </trkpt>
      <trkpt lat="31.81926000" lon="35.00130000">
        <ele>300.00000</ele>
        <time>2010-01-01T02:20:34Z</time>
      </trkpt>
      <trkpt lat="31.81932000" lon="35.00080000">
        <ele>296.00000</ele>
        <time>2010-01-01T02:20:51Z</time>
      </trkpt>
      <trkpt lat="31.81931000" lon="35.00029000">
        <ele>287.00000</ele>
        <time>2010-01-01T02:21:09Z</time>
      </trkpt>
      <trkpt lat="31.81920000" lon="34.99984000">
        <ele>281.00000</ele>
        <time>2010-01-01T02:21:24Z</time>
      </trkpt>
      <trkpt lat="31.81919000" lon="34.99963000">
        <ele>279.00000</ele>
        <time>2010-01-01T02:21:32Z</time>
      </trkpt>
      <trkpt lat="31.81921000" lon="34.99953000">
        <ele>279.00000</ele>
        <time>2010-01-01T02:21:35Z</time>
      </trkpt>
      <trkpt lat="31.81923000" lon="34.99947000">
        <ele>279.00000</ele>
        <time>2010-01-01T02:21:37Z</time>
      </trkpt>
      <trkpt lat="31.81947000" lon="34.99905000">
        <ele>275.00000</ele>
        <time>2010-01-01T02:21:55Z</time>
      </trkpt>
      <trkpt lat="31.81954000" lon="34.99884000">
        <ele>272.00000</ele>
        <time>2010-01-01T02:22:02Z</time>
      </trkpt>
      <trkpt lat="31.81976000" lon="34.99874000">
        <ele>272.00000</ele>
        <time>2010-01-01T02:22:12Z</time>
      </trkpt>
      <trkpt lat="31.81984000" lon="34.99873000">
        <ele>273.00000</ele>
        <time>2010-01-01T02:22:15Z</time>
      </trkpt>
      <trkpt lat="31.81997000" lon="34.99876000">
        <ele>274.00000</ele>
        <time>2010-01-01T02:22:20Z</time>
      </trkpt>
      <trkpt lat="31.82020000" lon="34.99890000">
        <ele>276.00000</ele>
        <time>2010-01-01T02:22:31Z</time>
      </trkpt>
      <trkpt lat="31.82025000" lon="34.99895000">
        <ele>277.00000</ele>
        <time>2010-01-01T02:22:33Z</time>
      </trkpt>
      <trkpt lat="31.82025000" lon="34.99896000">
        <ele>277.00000</ele>
        <time>2010-01-01T02:22:34Z</time>
      </trkpt>
      <trkpt lat="31.82051000" lon="34.99927000">
        <ele>279.00000</ele>
        <time>2010-01-01T02:22:48Z</time>
      </trkpt>
      <trkpt lat="31.82062000" lon="34.99934000">
        <ele>279.00000</ele>
        <time>2010-01-01T02:22:53Z</time>
      </trkpt>
      <trkpt lat="31.82066000" lon="34.99935000">
        <ele>278.00000</ele>
        <time>2010-01-01T02:22:55Z</time>
      </trkpt>
      <trkpt lat="31.82080000" lon="34.99941000">
        <ele>277.00000</ele>
        <time>2010-01-01T02:23:01Z</time>
      </trkpt>
      <trkpt lat="31.82099000" lon="34.99955000">
        <ele>278.00000</ele>
        <time>2010-01-01T02:23:10Z</time>
      </trkpt>
      <trkpt lat="31.82109000" lon="34.99966000">
        <ele>279.00000</ele>
        <time>2010-01-01T02:23:15Z</time>
      </trkpt>
      <trkpt lat="31.82113000" lon="34.99978000">
        <ele>281.00000</ele>
        <time>2010-01-01T02:23:20Z</time>
      </trkpt>
      <trkpt lat="31.82121000" lon="35.00013000">
        <ele>285.00000</ele>
        <time>2010-01-01T02:23:32Z</time>
      </trkpt>
      <trkpt lat="31.82121000" lon="35.00022000">
        <ele>286.00000</ele>
        <time>2010-01-01T02:23:35Z</time>
      </trkpt>
      <trkpt lat="31.82114000" lon="35.00042000">
        <ele>289.00000</ele>
        <time>2010-01-01T02:23:43Z</time>
      </trkpt>
      <trkpt lat="31.82114000" lon="35.00050000">
        <ele>290.00000</ele>
        <time>2010-01-01T02:23:45Z</time>
      </trkpt>
      <trkpt lat="31.82115000" lon="35.00059000">
        <ele>290.00000</ele>
        <time>2010-01-01T02:23:48Z</time>
      </trkpt>
      <trkpt lat="31.82130000" lon="35.00103000">
        <ele>292.00000</ele>
        <time>2010-01-01T02:24:04Z</time>
      </trkpt>
      <trkpt lat="31.82149000" lon="35.00150000">
        <ele>293.00000</ele>
        <time>2010-01-01T02:24:22Z</time>
      </trkpt>
      <trkpt lat="31.82164000" lon="35.00181000">
        <ele>291.00000</ele>
        <time>2010-01-01T02:24:34Z</time>
      </trkpt>
      <trkpt lat="31.82181000" lon="35.00211000">
        <ele>288.00000</ele>
        <time>2010-01-01T02:24:47Z</time>
      </trkpt>
      <trkpt lat="31.82182000" lon="35.00220000">
        <ele>288.00000</ele>
        <time>2010-01-01T02:24:50Z</time>
      </trkpt>
      <trkpt lat="31.82182000" lon="35.00237000">
        <ele>287.00000</ele>
        <time>2010-01-01T02:24:55Z</time>
      </trkpt>
      <trkpt lat="31.82179000" lon="35.00256000">
        <ele>288.00000</ele>
        <time>2010-01-01T02:25:02Z</time>
      </trkpt>
      <trkpt lat="31.82176000" lon="35.00265000">
        <ele>289.00000</ele>
        <time>2010-01-01T02:25:05Z</time>
      </trkpt>
      <trkpt lat="31.82156000" lon="35.00319000">
        <ele>299.00000</ele>
        <time>2010-01-01T02:25:25Z</time>
      </trkpt>
      <trkpt lat="31.82156000" lon="35.00321000">
        <ele>299.00000</ele>
        <time>2010-01-01T02:25:26Z</time>
      </trkpt>
      <trkpt lat="31.82158000" lon="35.00328000">
        <ele>300.00000</ele>
        <time>2010-01-01T02:25:29Z</time>
      </trkpt>
      <trkpt lat="31.82162000" lon="35.00331000">
        <ele>300.00000</ele>
        <time>2010-01-01T02:25:30Z</time>
      </trkpt>
      <trkpt lat="31.82170000" lon="35.00332000">
        <ele>300.00000</ele>
        <time>2010-01-01T02:25:34Z</time>
      </trkpt>
      <trkpt lat="31.82210000" lon="35.00325000">
        <ele>297.00000</ele>
        <time>2010-01-01T02:25:50Z</time>
      </trkpt>
      <trkpt lat="31.82245000" lon="35.00323000">
        <ele>294.00000</ele>
        <time>2010-01-01T02:26:04Z</time>
      </trkpt>
      <trkpt lat="31.82258000" lon="35.00324000">
        <ele>294.00000</ele>
        <time>2010-01-01T02:26:09Z</time>
      </trkpt>
      <trkpt lat="31.82272000" lon="35.00329000">
        <ele>294.00000</ele>
        <time>2010-01-01T02:26:15Z</time>
      </trkpt>
      <trkpt lat="31.82280000" lon="35.00334000">
        <ele>294.00000</ele>
        <time>2010-01-01T02:26:19Z</time>
      </trkpt>
      <trkpt lat="31.82290000" lon="35.00346000">
        <ele>295.00000</ele>
        <time>2010-01-01T02:26:24Z</time>
      </trkpt>
      <trkpt lat="31.82291000" lon="35.00346000">
        <ele>295.00000</ele>
        <time>2010-01-01T02:26:25Z</time>
      </trkpt>
      <trkpt lat="31.82303000" lon="35.00360000">
        <ele>295.00000</ele>
        <time>2010-01-01T02:26:31Z</time>
      </trkpt>
      <trkpt lat="31.82313000" lon="35.00376000">
        <ele>294.00000</ele>
        <time>2010-01-01T02:26:38Z</time>
      </trkpt>
      <trkpt lat="31.82317000" lon="35.00387000">
        <ele>293.00000</ele>
        <time>2010-01-01T02:26:42Z</time>
      </trkpt>
      <trkpt lat="31.82321000" lon="35.00440000">
        <ele>291.00000</ele>
        <time>2010-01-01T02:27:00Z</time>
      </trkpt>
      <trkpt lat="31.82325000" lon="35.00457000">
        <ele>290.00000</ele>
        <time>2010-01-01T02:27:06Z</time>
      </trkpt>
      <trkpt lat="31.82336000" lon="35.00494000">
        <ele>288.00000</ele>
        <time>2010-01-01T02:27:20Z</time>
      </trkpt>
      <trkpt lat="31.82336000" lon="35.00506000">
        <ele>288.00000</ele>
        <time>2010-01-01T02:27:24Z</time>
      </trkpt>
      <trkpt lat="31.82334000" lon="35.00537000">
        <ele>286.00000</ele>
        <time>2010-01-01T02:27:34Z</time>
      </trkpt>
      <trkpt lat="31.82330000" lon="35.00556000">
        <ele>285.00000</ele>
        <time>2010-01-01T02:27:41Z</time>
      </trkpt>
      <trkpt lat="31.82322000" lon="35.00580000">
        <ele>283.00000</ele>
        <time>2010-01-01T02:27:50Z</time>
      </trkpt>
      <trkpt lat="31.82304000" lon="35.00614000">
        <ele>282.00000</ele>
        <time>2010-01-01T02:28:03Z</time>
      </trkpt>
      <trkpt lat="31.82293000" lon="35.00625000">
        <ele>283.00000</ele>
        <time>2010-01-01T02:28:09Z</time>
      </trkpt>
      <trkpt lat="31.82280000" lon="35.00644000">
        <ele>284.00000</ele>
        <time>2010-01-01T02:28:17Z</time>
      </trkpt>
      <trkpt lat="31.82256000" lon="35.00670000">
        <ele>285.00000</ele>
        <time>2010-01-01T02:28:31Z</time>
      </trkpt>
      <trkpt lat="31.82245000" lon="35.00678000">
        <ele>285.00000</ele>
        <time>2010-01-01T02:28:36Z</time>
      </trkpt>
      <trkpt lat="31.82238000" lon="35.00681000">
        <ele>286.00000</ele>
        <time>2010-01-01T02:28:39Z</time>
      </trkpt>
      <trkpt lat="31.82205000" lon="35.00683000">
        <ele>293.00000</ele>
        <time>2010-01-01T02:28:52Z</time>
      </trkpt>
      <trkpt lat="31.82198000" lon="35.00684000">
        <ele>294.00000</ele>
        <time>2010-01-01T02:28:55Z</time>
      </trkpt>
      <trkpt lat="31.82192000" lon="35.00688000">
        <ele>295.00000</ele>
        <time>2010-01-01T02:28:57Z</time>
      </trkpt>
      <trkpt lat="31.82189000" lon="35.00693000">
        <ele>295.00000</ele>
        <time>2010-01-01T02:29:00Z</time>
      </trkpt>
      <trkpt lat="31.82175000" lon="35.00725000">
        <ele>296.00000</ele>
        <time>2010-01-01T02:29:12Z</time>
      </trkpt>
      <trkpt lat="31.82140000" lon="35.00771000">
        <ele>300.00000</ele>
        <time>2010-01-01T02:29:33Z</time>
      </trkpt>
      <trkpt lat="31.82122000" lon="35.00801000">
        <ele>303.00000</ele>
        <time>2010-01-01T02:29:45Z</time>
      </trkpt>
      <trkpt lat="31.82108000" lon="35.00843000">
        <ele>303.00000</ele>
        <time>2010-01-01T02:30:01Z</time>
      </trkpt>
      <trkpt lat="31.82104000" lon="35.00850000">
        <ele>303.00000</ele>
        <time>2010-01-01T02:30:04Z</time>
      </trkpt>
      <trkpt lat="31.82077000" lon="35.00878000">
        <ele>305.00000</ele>
        <time>2010-01-01T02:30:18Z</time>
      </trkpt>
      <trkpt lat="31.82048000" lon="35.00896000">
        <ele>308.00000</ele>
        <time>2010-01-01T02:30:31Z</time>
      </trkpt>
      <trkpt lat="31.82037000" lon="35.00907000">
        <ele>310.00000</ele>
        <time>2010-01-01T02:30:37Z</time>
      </trkpt>
      <trkpt lat="31.82032000" lon="35.00917000">
        <ele>310.00000</ele>
        <time>2010-01-01T02:30:41Z</time>
      </trkpt>
      <trkpt lat="31.82031000" lon="35.00928000">
        <ele>311.00000</ele>
        <time>2010-01-01T02:30:45Z</time>
      </trkpt>
      <trkpt lat="31.82031000" lon="35.00935000">
        <ele>311.00000</ele>
        <time>2010-01-01T02:30:47Z</time>
      </trkpt>
      <trkpt lat="31.82034000" lon="35.00942000">
        <ele>310.00000</ele>
        <time>2010-01-01T02:30:50Z</time>
      </trkpt>
      <trkpt lat="31.82042000" lon="35.00954000">
        <ele>308.00000</ele>
        <time>2010-01-01T02:30:55Z</time>
      </trkpt>
      <trkpt lat="31.82046000" lon="35.00966000">
        <ele>307.00000</ele>
        <time>2010-01-01T02:30:59Z</time>
      </trkpt>
      <trkpt lat="31.82051000" lon="35.01001000">
        <ele>306.00000</ele>
        <time>2010-01-01T02:31:11Z</time>
      </trkpt>
      <trkpt lat="31.82049000" lon="35.01016000">
        <ele>306.00000</ele>
        <time>2010-01-01T02:31:16Z</time>
      </trkpt>
      <trkpt lat="31.82042000" lon="35.01049000">
        <ele>305.00000</ele>
        <time>2010-01-01T02:31:28Z</time>
      </trkpt>
      <trkpt lat="31.82041000" lon="35.01062000">
        <ele>304.00000</ele>
        <time>2010-01-01T02:31:32Z</time>
      </trkpt>
      <trkpt lat="31.82044000" lon="35.01104000">
        <ele>302.00000</ele>
        <time>2010-01-01T02:31:47Z</time>
      </trkpt>
      <trkpt lat="31.82043000" lon="35.01120000">
        <ele>302.00000</ele>
        <time>2010-01-01T02:31:52Z</time>
      </trkpt>
      <trkpt lat="31.82025000" lon="35.01149000">
        <ele>307.00000</ele>
        <time>2010-01-01T02:32:04Z</time>
      </trkpt>
      <trkpt lat="31.81998000" lon="35.01170000">
        <ele>316.00000</ele>
        <time>2010-01-01T02:32:17Z</time>
      </trkpt>
      <trkpt lat="31.81979000" lon="35.01180000">
        <ele>318.00000</ele>
        <time>2010-01-01T02:32:26Z</time>
      </trkpt>
      <trkpt lat="31.81957000" lon="35.01186000">
        <ele>321.00000</ele>
        <time>2010-01-01T02:32:35Z</time>
      </trkpt>
      <trkpt lat="31.81957000" lon="35.01185000">
        <ele>321.00000</ele>
        <time>2010-01-01T02:32:35Z</time>
      </trkpt>
      <trkpt lat="31.81939000" lon="35.01190000">
        <ele>323.00000</ele>
        <time>2010-01-01T02:32:42Z</time>
      </trkpt>
      <trkpt lat="31.81890000" lon="35.01197000">
        <ele>327.00000</ele>
        <time>2010-01-01T02:33:02Z</time>
      </trkpt>
      <trkpt lat="31.81853000" lon="35.01217000">
        <ele>330.00000</ele>
        <time>2010-01-01T02:33:19Z</time>
      </trkpt>
      <trkpt lat="31.81843000" lon="35.01221000">
        <ele>330.00000</ele>
        <time>2010-01-01T02:33:23Z</time>
      </trkpt>
      <trkpt lat="31.81839000" lon="35.01225000">
        <ele>330.00000</ele>
        <time>2010-01-01T02:33:25Z</time>
      </trkpt>
      <trkpt lat="31.81817000" lon="35.01247000">
        <ele>331.00000</ele>
        <time>2010-01-01T02:33:36Z</time>
      </trkpt>
      <trkpt lat="31.81766000" lon="35.01281000">
        <ele>339.00000</ele>
        <time>2010-01-01T02:34:00Z</time>
      </trkpt>
      <trkpt lat="31.81728000" lon="35.01302000">
        <ele>344.00000</ele>
        <time>2010-01-01T02:34:17Z</time>
      </trkpt>
      <trkpt lat="31.81696000" lon="35.01315000">
        <ele>347.00000</ele>
        <time>2010-01-01T02:34:30Z</time>
      </trkpt>
      <trkpt lat="31.81669000" lon="35.01331000">
        <ele>350.00000</ele>
        <time>2010-01-01T02:34:42Z</time>
      </trkpt>
      <trkpt lat="31.81629000" lon="35.01351000">
        <ele>354.00000</ele>
        <time>2010-01-01T02:35:00Z</time>
      </trkpt>
      <trkpt lat="31.81573000" lon="35.01397000">
        <ele>359.00000</ele>
        <time>2010-01-01T02:35:27Z</time>
      </trkpt>
      <trkpt lat="31.81568000" lon="35.01418000">
        <ele>359.00000</ele>
        <time>2010-01-01T02:35:35Z</time>
      </trkpt>
      <trkpt lat="31.81546000" lon="35.01460000">
        <ele>362.00000</ele>
        <time>2010-01-01T02:35:51Z</time>
      </trkpt>
      <trkpt lat="31.81523000" lon="35.01545000">
        <ele>363.00000</ele>
        <time>2010-01-01T02:36:22Z</time>
      </trkpt>
      <trkpt lat="31.81508000" lon="35.01668000">
        <ele>362.00000</ele>
        <time>2010-01-01T02:37:04Z</time>
      </trkpt>
      <trkpt lat="31.81503000" lon="35.01703000">
        <ele>363.00000</ele>
        <time>2010-01-01T02:37:16Z</time>
      </trkpt>
      <trkpt lat="31.81512000" lon="35.01731000">
        <ele>359.00000</ele>
        <time>2010-01-01T02:37:26Z</time>
      </trkpt>
      <trkpt lat="31.81541000" lon="35.01784000">
        <ele>350.00000</ele>
        <time>2010-01-01T02:37:48Z</time>
      </trkpt>
      <trkpt lat="31.81556000" lon="35.01823000">
        <ele>347.00000</ele>
        <time>2010-01-01T02:38:02Z</time>
      </trkpt>
      <trkpt lat="31.81551000" lon="35.01835000">
        <ele>348.00000</ele>
        <time>2010-01-01T02:38:07Z</time>
      </trkpt>
      <trkpt lat="31.81469000" lon="35.01868000">
        <ele>350.00000</ele>
        <time>2010-01-01T02:38:41Z</time>
      </trkpt>
      <trkpt lat="31.81425000" lon="35.01881000">
        <ele>347.00000</ele>
        <time>2010-01-01T02:39:00Z</time>
      </trkpt>
      <trkpt lat="31.81417000" lon="35.01883000">
        <ele>347.00000</ele>
        <time>2010-01-01T02:39:03Z</time>
      </trkpt>
      <trkpt lat="31.81381000" lon="35.01886000">
        <ele>343.00000</ele>
        <time>2010-01-01T02:39:17Z</time>
      </trkpt>
      <trkpt lat="31.81303000" lon="35.01891000">
        <ele>333.00000</ele>
        <time>2010-01-01T02:39:49Z</time>
      </trkpt>
      <trkpt lat="31.81286000" lon="35.01888000">
        <ele>331.00000</ele>
        <time>2010-01-01T02:39:55Z</time>
      </trkpt>
      <trkpt lat="31.81244000" lon="35.01866000">
        <ele>327.00000</ele>
        <time>2010-01-01T02:40:14Z</time>
      </trkpt>
      <trkpt lat="31.81233000" lon="35.01861000">
        <ele>325.00000</ele>
        <time>2010-01-01T02:40:19Z</time>
      </trkpt>
      <trkpt lat="31.81224000" lon="35.01868000">
        <ele>324.00000</ele>
        <time>2010-01-01T02:40:23Z</time>
      </trkpt>
      <trkpt lat="31.81218000" lon="35.01871000">
        <ele>323.00000</ele>
        <time>2010-01-01T02:40:25Z</time>
      </trkpt>
      <trkpt lat="31.81213000" lon="35.01877000">
        <ele>323.00000</ele>
        <time>2010-01-01T02:40:28Z</time>
      </trkpt>
      <trkpt lat="31.81208000" lon="35.01898000">
        <ele>323.00000</ele>
        <time>2010-01-01T02:40:36Z</time>
      </trkpt>
      <trkpt lat="31.81191000" lon="35.01958000">
        <ele>321.00000</ele>
        <time>2010-01-01T02:40:57Z</time>
      </trkpt>
      <trkpt lat="31.81185000" lon="35.01987000">
        <ele>319.00000</ele>
        <time>2010-01-01T02:41:07Z</time>
      </trkpt>
      <trkpt lat="31.81185000" lon="35.01993000">
        <ele>319.00000</ele>
        <time>2010-01-01T02:41:09Z</time>
      </trkpt>
      <trkpt lat="31.81179000" lon="35.01989000">
        <ele>318.00000</ele>
        <time>2010-01-01T02:41:12Z</time>
      </trkpt>
      <trkpt lat="31.81169000" lon="35.01985000">
        <ele>317.00000</ele>
        <time>2010-01-01T02:41:16Z</time>
      </trkpt>
      <trkpt lat="31.81151000" lon="35.01982000">
        <ele>314.00000</ele>
        <time>2010-01-01T02:41:24Z</time>
      </trkpt>
      <trkpt lat="31.81137000" lon="35.01975000">
        <ele>312.00000</ele>
        <time>2010-01-01T02:41:30Z</time>
      </trkpt>
      <trkpt lat="31.81108000" lon="35.01958000">
        <ele>311.00000</ele>
        <time>2010-01-01T02:41:43Z</time>
      </trkpt>
      <trkpt lat="31.81086000" lon="35.01943000">
        <ele>310.00000</ele>
        <time>2010-01-01T02:41:53Z</time>
      </trkpt>
      <trkpt lat="31.81071000" lon="35.01927000">
        <ele>309.00000</ele>
        <time>2010-01-01T02:42:01Z</time>
      </trkpt>
      <trkpt lat="31.81051000" lon="35.01900000">
        <ele>307.00000</ele>
        <time>2010-01-01T02:42:13Z</time>
      </trkpt>
      <trkpt lat="31.81044000" lon="35.01883000">
        <ele>305.00000</ele>
        <time>2010-01-01T02:42:20Z</time>
      </trkpt>
      <trkpt lat="31.81031000" lon="35.01837000">
        <ele>303.00000</ele>
        <time>2010-01-01T02:42:36Z</time>
      </trkpt>
      <trkpt lat="31.81025000" lon="35.01823000">
        <ele>302.00000</ele>
        <time>2010-01-01T02:42:42Z</time>
      </trkpt>
      <trkpt lat="31.81028700" lon="35.01822350">
        <ele>302.00000</ele>
        <time>2010-01-01T02:42:43Z</time>
      </trkpt>
      <trkpt lat="31.80969440" lon="35.01749390">
        <ele>298.00000</ele>
        <time>2010-01-01T02:43:17Z</time>
      </trkpt>
      <trkpt lat="31.81000000" lon="35.01655000">
        <ele>297.00000</ele>
        <time>2010-01-01T02:43:52Z</time>
      </trkpt>
      <trkpt lat="31.81014000" lon="35.01612000">
        <ele>295.00000</ele>
        <time>2010-01-01T02:44:07Z</time>
      </trkpt>
      <trkpt lat="31.81028000" lon="35.01577000">
        <ele>293.00000</ele>
        <time>2010-01-01T02:44:21Z</time>
      </trkpt>
      <trkpt lat="31.81034000" lon="35.01549000">
        <ele>294.00000</ele>
        <time>2010-01-01T02:44:30Z</time>
      </trkpt>
      <trkpt lat="31.81046000" lon="35.01518000">
        <ele>295.00000</ele>
        <time>2010-01-01T02:44:42Z</time>
      </trkpt>
      <trkpt lat="31.81052000" lon="35.01493000">
        <ele>295.00000</ele>
        <time>2010-01-01T02:44:51Z</time>
      </trkpt>
      <trkpt lat="31.81097000" lon="35.01412000">
        <ele>291.00000</ele>
        <time>2010-01-01T02:45:24Z</time>
      </trkpt>
      <trkpt lat="31.81129000" lon="35.01360000">
        <ele>289.00000</ele>
        <time>2010-01-01T02:45:46Z</time>
      </trkpt>
      <trkpt lat="31.81142000" lon="35.01330000">
        <ele>288.00000</ele>
        <time>2010-01-01T02:45:57Z</time>
      </trkpt>
      <trkpt lat="31.81150000" lon="35.01289000">
        <ele>289.00000</ele>
        <time>2010-01-01T02:46:11Z</time>
      </trkpt>
      <trkpt lat="31.81149960" lon="35.01289120">
        <ele>289.00000</ele>
        <time>2010-01-01T02:46:11Z</time>
      </trkpt>
    </trkseg>
  </trk>
</gpx>

